<?xml version="1.0" encoding="UTF-8" standalone="yes"?>
<gpx version="1.1" creator="MagicMaps Tour Explorer"
     xmlns:xsi="http://www.w3.org/2001/XMLSchema-instance"
     xmlns="http://www.topografix.com/GPX/1/1">
  <trk>
    <name>schoenalmjoch-w</name>
    <trkseg>
      <trkpt lat="47.474449966" lon="11.465266384">
        <ele>939.8</ele>
        <time>2022-01-26T08:28:42</time>
      </trkpt>
      <trkpt lat="47.474519704" lon="11.465328913">
        <ele>939.8</ele>
        <time>2022-01-26T08:31:46</time>
      </trkpt>
      <trkpt lat="47.474849699" lon="11.465282729">
        <ele>941.3</ele>
        <time>2022-01-26T08:32:21</time>
      </trkpt>
      <trkpt lat="47.475066120" lon="11.465279376">
        <ele>940.8</ele>
        <time>2022-01-26T08:32:39</time>
      </trkpt>
      <trkpt lat="47.475473061" lon="11.465350203">
        <ele>940.8</ele>
        <time>2022-01-26T08:33:13</time>
      </trkpt>
      <trkpt lat="47.475601975" lon="11.465331763">
        <ele>940.3</ele>
        <time>2022-01-26T08:33:26</time>
      </trkpt>
      <trkpt lat="47.475829879" lon="11.465206873">
        <ele>940.8</ele>
        <time>2022-01-26T08:33:49</time>
      </trkpt>
      <trkpt lat="47.476085695" lon="11.464940663">
        <ele>940.3</ele>
        <time>2022-01-26T08:34:24</time>
      </trkpt>
      <trkpt lat="47.476297254" lon="11.464856509">
        <ele>940.3</ele>
        <time>2022-01-26T08:34:49</time>
      </trkpt>
      <trkpt lat="47.476367410" lon="11.464854414">
        <ele>940.3</ele>
        <time>2022-01-26T08:35:02</time>
      </trkpt>
      <trkpt lat="47.476342348" lon="11.464971006">
        <ele>940.8</ele>
        <time>2022-01-26T08:35:34</time>
      </trkpt>
      <trkpt lat="47.476265570" lon="11.465066140">
        <ele>940.3</ele>
        <time>2022-01-26T08:35:49</time>
      </trkpt>
      <trkpt lat="47.476013945" lon="11.465491774">
        <ele>940.3</ele>
        <time>2022-01-26T08:36:23</time>
      </trkpt>
      <trkpt lat="47.475759890" lon="11.465758150">
        <ele>940.3</ele>
        <time>2022-01-26T08:36:44</time>
      </trkpt>
      <trkpt lat="47.475395109" lon="11.465959232">
        <ele>940.3</ele>
        <time>2022-01-26T08:37:17</time>
      </trkpt>
      <trkpt lat="47.474819021" lon="11.466437001">
        <ele>944.1</ele>
        <time>2022-01-26T08:39:02</time>
      </trkpt>
      <trkpt lat="47.474711817" lon="11.466568597">
        <ele>944.6</ele>
        <time>2022-01-26T08:39:18</time>
      </trkpt>
      <trkpt lat="47.474623891" lon="11.466744700">
        <ele>946.6</ele>
        <time>2022-01-26T08:39:36</time>
      </trkpt>
      <trkpt lat="47.474593381" lon="11.466934215">
        <ele>948.0</ele>
        <time>2022-01-26T08:39:54</time>
      </trkpt>
      <trkpt lat="47.474536635" lon="11.467122138">
        <ele>949.4</ele>
        <time>2022-01-26T08:40:11</time>
      </trkpt>
      <trkpt lat="47.474390874" lon="11.467513405">
        <ele>952.3</ele>
        <time>2022-01-26T08:40:47</time>
      </trkpt>
      <trkpt lat="47.474229103" lon="11.467877431">
        <ele>955.2</ele>
        <time>2022-01-26T08:41:22</time>
      </trkpt>
      <trkpt lat="47.474113181" lon="11.468091086">
        <ele>957.6</ele>
        <time>2022-01-26T08:41:45</time>
      </trkpt>
      <trkpt lat="47.474032799" lon="11.468330808">
        <ele>959.5</ele>
        <time>2022-01-26T08:42:07</time>
      </trkpt>
      <trkpt lat="47.474053251" lon="11.468603471">
        <ele>961.0</ele>
        <time>2022-01-26T08:42:29</time>
      </trkpt>
      <trkpt lat="47.473995415" lon="11.468835147">
        <ele>963.9</ele>
        <time>2022-01-26T08:42:49</time>
      </trkpt>
      <trkpt lat="47.473868262" lon="11.469013179">
        <ele>966.3</ele>
        <time>2022-01-26T08:43:09</time>
      </trkpt>
      <trkpt lat="47.473704396" lon="11.469047880">
        <ele>969.1</ele>
        <time>2022-01-26T08:43:28</time>
      </trkpt>
      <trkpt lat="47.473528627" lon="11.469020974">
        <ele>971.1</ele>
        <time>2022-01-26T08:43:48</time>
      </trkpt>
      <trkpt lat="47.473260239" lon="11.468925588">
        <ele>974.9</ele>
        <time>2022-01-26T08:44:19</time>
      </trkpt>
      <trkpt lat="47.473154040" lon="11.469040923">
        <ele>976.8</ele>
        <time>2022-01-26T08:44:37</time>
      </trkpt>
      <trkpt lat="47.473306088" lon="11.469719605">
        <ele>981.2</ele>
        <time>2022-01-26T08:45:28</time>
      </trkpt>
      <trkpt lat="47.473375071" lon="11.470100731">
        <ele>983.6</ele>
        <time>2022-01-26T08:45:56</time>
      </trkpt>
      <trkpt lat="47.473344142" lon="11.470411615">
        <ele>986.0</ele>
        <time>2022-01-26T08:46:17</time>
      </trkpt>
      <trkpt lat="47.473257892" lon="11.470666090">
        <ele>987.4</ele>
        <time>2022-01-26T08:46:36</time>
      </trkpt>
      <trkpt lat="47.473168122" lon="11.470870105">
        <ele>989.3</ele>
        <time>2022-01-26T08:46:57</time>
      </trkpt>
      <trkpt lat="47.473139791" lon="11.471021064">
        <ele>990.3</ele>
        <time>2022-01-26T08:47:12</time>
      </trkpt>
      <trkpt lat="47.473076759" lon="11.471082252">
        <ele>990.8</ele>
        <time>2022-01-26T08:47:26</time>
      </trkpt>
      <trkpt lat="47.472878694" lon="11.471353490">
        <ele>993.2</ele>
        <time>2022-01-26T08:47:56</time>
      </trkpt>
      <trkpt lat="47.472731173" lon="11.471346282">
        <ele>993.7</ele>
        <time>2022-01-26T08:48:13</time>
      </trkpt>
      <trkpt lat="47.472320711" lon="11.471067164">
        <ele>999.0</ele>
        <time>2022-01-26T08:48:59</time>
      </trkpt>
      <trkpt lat="47.472222056" lon="11.471078647">
        <ele>999.9</ele>
        <time>2022-01-26T08:49:09</time>
      </trkpt>
      <trkpt lat="47.472042181" lon="11.471213009">
        <ele>1001.8</ele>
        <time>2022-01-26T08:49:30</time>
      </trkpt>
      <trkpt lat="47.471973617" lon="11.471390287">
        <ele>1003.8</ele>
        <time>2022-01-26T08:49:45</time>
      </trkpt>
      <trkpt lat="47.471978646" lon="11.471433621">
        <ele>1003.8</ele>
        <time>2022-01-26T08:49:48</time>
      </trkpt>
      <trkpt lat="47.472084174" lon="11.471633697">
        <ele>1005.7</ele>
        <time>2022-01-26T08:50:07</time>
      </trkpt>
      <trkpt lat="47.472294979" lon="11.471877107">
        <ele>1009.5</ele>
        <time>2022-01-26T08:50:36</time>
      </trkpt>
      <trkpt lat="47.472365303" lon="11.472145328">
        <ele>1011.4</ele>
        <time>2022-01-26T08:50:57</time>
      </trkpt>
      <trkpt lat="47.472335380" lon="11.472793249">
        <ele>1016.2</ele>
        <time>2022-01-26T08:51:43</time>
      </trkpt>
      <trkpt lat="47.472306211" lon="11.473044120">
        <ele>1018.2</ele>
        <time>2022-01-26T08:52:00</time>
      </trkpt>
      <trkpt lat="47.471958865" lon="11.473714504">
        <ele>1023.9</ele>
        <time>2022-01-26T08:52:59</time>
      </trkpt>
      <trkpt lat="47.471884433" lon="11.473995633">
        <ele>1025.9</ele>
        <time>2022-01-26T08:53:20</time>
      </trkpt>
      <trkpt lat="47.471803883" lon="11.474710358">
        <ele>1030.7</ele>
        <time>2022-01-26T08:54:15</time>
      </trkpt>
      <trkpt lat="47.471839506" lon="11.474977154">
        <ele>1036.4</ele>
        <time>2022-01-26T08:54:46</time>
      </trkpt>
      <trkpt lat="47.471977808" lon="11.474975813">
        <ele>1039.3</ele>
        <time>2022-01-26T08:55:16</time>
      </trkpt>
      <trkpt lat="47.472174363" lon="11.475458108">
        <ele>1048.0</ele>
        <time>2022-01-26T08:56:18</time>
      </trkpt>
      <trkpt lat="47.472170088" lon="11.475671260">
        <ele>1054.2</ele>
        <time>2022-01-26T08:56:49</time>
      </trkpt>
      <trkpt lat="47.472216776" lon="11.475888854">
        <ele>1060.0</ele>
        <time>2022-01-26T08:57:21</time>
      </trkpt>
      <trkpt lat="47.472192720" lon="11.476546247">
        <ele>1075.4</ele>
        <time>2022-01-26T08:58:50</time>
      </trkpt>
      <trkpt lat="47.472149469" lon="11.476796195">
        <ele>1081.1</ele>
        <time>2022-01-26T08:59:22</time>
      </trkpt>
      <trkpt lat="47.472199760" lon="11.476916224">
        <ele>1083.5</ele>
        <time>2022-01-26T08:59:39</time>
      </trkpt>
      <trkpt lat="47.472228929" lon="11.477155443">
        <ele>1088.8</ele>
        <time>2022-01-26T09:00:10</time>
      </trkpt>
      <trkpt lat="47.472227085" lon="11.477277819">
        <ele>1091.7</ele>
        <time>2022-01-26T09:00:26</time>
      </trkpt>
      <trkpt lat="47.472177045" lon="11.477526426">
        <ele>1097.0</ele>
        <time>2022-01-26T09:01:00</time>
      </trkpt>
      <trkpt lat="47.472220967" lon="11.477755671">
        <ele>1102.3</ele>
        <time>2022-01-26T09:01:32</time>
      </trkpt>
      <trkpt lat="47.472302103" lon="11.477949210">
        <ele>1108.1</ele>
        <time>2022-01-26T09:02:06</time>
      </trkpt>
      <trkpt lat="47.472372511" lon="11.477994388">
        <ele>1110.5</ele>
        <time>2022-01-26T09:02:23</time>
      </trkpt>
      <trkpt lat="47.472413499" lon="11.478047110">
        <ele>1112.9</ele>
        <time>2022-01-26T09:02:38</time>
      </trkpt>
      <trkpt lat="47.472268492" lon="11.478227572">
        <ele>1115.8</ele>
        <time>2022-01-26T09:03:14</time>
      </trkpt>
      <trkpt lat="47.472138405" lon="11.478283480">
        <ele>1118.2</ele>
        <time>2022-01-26T09:03:33</time>
      </trkpt>
      <trkpt lat="47.471955931" lon="11.478307201">
        <ele>1121.0</ele>
        <time>2022-01-26T09:05:16</time>
      </trkpt>
      <trkpt lat="47.471828023" lon="11.478274427">
        <ele>1122.5</ele>
        <time>2022-01-26T09:05:33</time>
      </trkpt>
      <trkpt lat="47.471681256" lon="11.478328323">
        <ele>1124.4</ele>
        <time>2022-01-26T09:05:52</time>
      </trkpt>
      <trkpt lat="47.471586876" lon="11.478476599">
        <ele>1126.3</ele>
        <time>2022-01-26T09:06:11</time>
      </trkpt>
      <trkpt lat="47.471538344" lon="11.478618002">
        <ele>1127.8</ele>
        <time>2022-01-26T09:06:27</time>
      </trkpt>
      <trkpt lat="47.471372802" lon="11.479265923">
        <ele>1135.0</ele>
        <time>2022-01-26T09:07:29</time>
      </trkpt>
      <trkpt lat="47.471342292" lon="11.479458204">
        <ele>1137.4</ele>
        <time>2022-01-26T09:07:50</time>
      </trkpt>
      <trkpt lat="47.471348997" lon="11.479526097">
        <ele>1138.8</ele>
        <time>2022-01-26T09:08:08</time>
      </trkpt>
      <trkpt lat="47.471453603" lon="11.479551997">
        <ele>1139.8</ele>
        <time>2022-01-26T09:08:24</time>
      </trkpt>
      <trkpt lat="47.471585870" lon="11.479320154">
        <ele>1143.1</ele>
        <time>2022-01-26T09:08:54</time>
      </trkpt>
      <trkpt lat="47.471702630" lon="11.479244297">
        <ele>1145.1</ele>
        <time>2022-01-26T09:09:13</time>
      </trkpt>
      <trkpt lat="47.471764237" lon="11.479251841">
        <ele>1146.5</ele>
        <time>2022-01-26T09:09:38</time>
      </trkpt>
      <trkpt lat="47.471738672" lon="11.479195682">
        <ele>1145.1</ele>
        <time>2022-01-26T09:10:53</time>
      </trkpt>
      <trkpt lat="47.471923744" lon="11.479322836">
        <ele>1144.1</ele>
        <time>2022-01-26T09:16:56</time>
      </trkpt>
      <trkpt lat="47.472524308" lon="11.479539676">
        <ele>1157.6</ele>
        <time>2022-01-26T09:18:19</time>
      </trkpt>
      <trkpt lat="47.472673673" lon="11.479686107">
        <ele>1160.5</ele>
        <time>2022-01-26T09:18:41</time>
      </trkpt>
      <trkpt lat="47.472799485" lon="11.479866654">
        <ele>1162.8</ele>
        <time>2022-01-26T09:19:01</time>
      </trkpt>
      <trkpt lat="47.472917838" lon="11.479942091">
        <ele>1164.3</ele>
        <time>2022-01-26T09:19:17</time>
      </trkpt>
      <trkpt lat="47.473078351" lon="11.479903283">
        <ele>1167.2</ele>
        <time>2022-01-26T09:19:37</time>
      </trkpt>
      <trkpt lat="47.473220676" lon="11.479795240">
        <ele>1169.6</ele>
        <time>2022-01-26T09:19:56</time>
      </trkpt>
      <trkpt lat="47.473382531" lon="11.479739500">
        <ele>1172.0</ele>
        <time>2022-01-26T09:20:16</time>
      </trkpt>
      <trkpt lat="47.474094154" lon="11.479639504">
        <ele>1182.1</ele>
        <time>2022-01-26T09:21:46</time>
      </trkpt>
      <trkpt lat="47.474236731" lon="11.479523163">
        <ele>1185.0</ele>
        <time>2022-01-26T09:22:06</time>
      </trkpt>
      <trkpt lat="47.474372182" lon="11.479465328">
        <ele>1186.4</ele>
        <time>2022-01-26T09:22:24</time>
      </trkpt>
      <trkpt lat="47.474420210" lon="11.479521822">
        <ele>1186.4</ele>
        <time>2022-01-26T09:22:31</time>
      </trkpt>
      <trkpt lat="47.474525236" lon="11.479786271">
        <ele>1187.4</ele>
        <time>2022-01-26T09:22:50</time>
      </trkpt>
      <trkpt lat="47.474687928" lon="11.479861038">
        <ele>1187.8</ele>
        <time>2022-01-26T09:23:06</time>
      </trkpt>
      <trkpt lat="47.474982971" lon="11.479559038">
        <ele>1191.7</ele>
        <time>2022-01-26T09:23:46</time>
      </trkpt>
      <trkpt lat="47.475205259" lon="11.479250332">
        <ele>1194.6</ele>
        <time>2022-01-26T09:24:23</time>
      </trkpt>
      <trkpt lat="47.475422854" lon="11.478991583">
        <ele>1198.4</ele>
        <time>2022-01-26T09:24:57</time>
      </trkpt>
      <trkpt lat="47.475708593" lon="11.478360845">
        <ele>1204.7</ele>
        <time>2022-01-26T09:25:57</time>
      </trkpt>
      <trkpt lat="47.475755699" lon="11.478175605">
        <ele>1206.6</ele>
        <time>2022-01-26T09:26:14</time>
      </trkpt>
      <trkpt lat="47.475758381" lon="11.477973349">
        <ele>1208.0</ele>
        <time>2022-01-26T09:26:31</time>
      </trkpt>
      <trkpt lat="47.475805487" lon="11.477828426">
        <ele>1209.5</ele>
        <time>2022-01-26T09:26:47</time>
      </trkpt>
      <trkpt lat="47.475883523" lon="11.477770843">
        <ele>1210.4</ele>
        <time>2022-01-26T09:27:00</time>
      </trkpt>
      <trkpt lat="47.475962732" lon="11.477905959">
        <ele>1212.4</ele>
        <time>2022-01-26T09:27:17</time>
      </trkpt>
      <trkpt lat="47.475966252" lon="11.478136126">
        <ele>1213.8</ele>
        <time>2022-01-26T09:27:37</time>
      </trkpt>
      <trkpt lat="47.475889223" lon="11.479017986">
        <ele>1222.9</ele>
        <time>2022-01-26T09:28:54</time>
      </trkpt>
      <trkpt lat="47.475836584" lon="11.479222085">
        <ele>1225.3</ele>
        <time>2022-01-26T09:29:14</time>
      </trkpt>
      <trkpt lat="47.475676406" lon="11.479518972">
        <ele>1229.7</ele>
        <time>2022-01-26T09:29:48</time>
      </trkpt>
      <trkpt lat="47.475332832" lon="11.480033034">
        <ele>1236.4</ele>
        <time>2022-01-26T09:30:50</time>
      </trkpt>
      <trkpt lat="47.475222023" lon="11.480237385">
        <ele>1238.8</ele>
        <time>2022-01-26T09:31:12</time>
      </trkpt>
      <trkpt lat="47.475169133" lon="11.480452716">
        <ele>1240.2</ele>
        <time>2022-01-26T09:31:31</time>
      </trkpt>
      <trkpt lat="47.475181371" lon="11.480606105">
        <ele>1241.7</ele>
        <time>2022-01-26T09:31:43</time>
      </trkpt>
      <trkpt lat="47.475371976" lon="11.481019165">
        <ele>1244.1</ele>
        <time>2022-01-26T09:32:23</time>
      </trkpt>
      <trkpt lat="47.475554617" lon="11.481380258">
        <ele>1247.9</ele>
        <time>2022-01-26T09:33:02</time>
      </trkpt>
      <trkpt lat="47.475620834" lon="11.481560217">
        <ele>1249.8</ele>
        <time>2022-01-26T09:33:22</time>
      </trkpt>
      <trkpt lat="47.475619074" lon="11.481688376">
        <ele>1251.8</ele>
        <time>2022-01-26T09:33:35</time>
      </trkpt>
      <trkpt lat="47.475531902" lon="11.481764317">
        <ele>1254.7</ele>
        <time>2022-01-26T09:33:56</time>
      </trkpt>
      <trkpt lat="47.475467781" lon="11.481786109">
        <ele>1255.6</ele>
        <time>2022-01-26T09:34:18</time>
      </trkpt>
      <trkpt lat="47.475371724" lon="11.481913011">
        <ele>1258.0</ele>
        <time>2022-01-26T09:34:35</time>
      </trkpt>
      <trkpt lat="47.475152202" lon="11.482360689">
        <ele>1262.8</ele>
        <time>2022-01-26T09:36:05</time>
      </trkpt>
      <trkpt lat="47.475097301" lon="11.482435372">
        <ele>1263.3</ele>
        <time>2022-01-26T09:36:23</time>
      </trkpt>
      <trkpt lat="47.474996550" lon="11.482532518">
        <ele>1264.3</ele>
        <time>2022-01-26T09:36:40</time>
      </trkpt>
      <trkpt lat="47.474736208" lon="11.482692864">
        <ele>1268.6</ele>
        <time>2022-01-26T09:37:20</time>
      </trkpt>
      <trkpt lat="47.474457258" lon="11.483014394">
        <ele>1273.9</ele>
        <time>2022-01-26T09:38:10</time>
      </trkpt>
      <trkpt lat="47.474375786" lon="11.483129058">
        <ele>1275.8</ele>
        <time>2022-01-26T09:38:28</time>
      </trkpt>
      <trkpt lat="47.474470921" lon="11.483235173">
        <ele>1278.2</ele>
        <time>2022-01-26T09:38:50</time>
      </trkpt>
      <trkpt lat="47.474610060" lon="11.483181110">
        <ele>1279.2</ele>
        <time>2022-01-26T09:39:09</time>
      </trkpt>
      <trkpt lat="47.474910719" lon="11.483129142">
        <ele>1281.1</ele>
        <time>2022-01-26T09:39:45</time>
      </trkpt>
      <trkpt lat="47.475062516" lon="11.483129310">
        <ele>1283.5</ele>
        <time>2022-01-26T09:40:03</time>
      </trkpt>
      <trkpt lat="47.475374825" lon="11.483187983">
        <ele>1287.8</ele>
        <time>2022-01-26T09:40:41</time>
      </trkpt>
      <trkpt lat="47.475527627" lon="11.483196113">
        <ele>1290.2</ele>
        <time>2022-01-26T09:41:00</time>
      </trkpt>
      <trkpt lat="47.475656960" lon="11.483156802">
        <ele>1292.6</ele>
        <time>2022-01-26T09:41:18</time>
      </trkpt>
      <trkpt lat="47.475934233" lon="11.483000480">
        <ele>1296.0</ele>
        <time>2022-01-26T09:41:55</time>
      </trkpt>
      <trkpt lat="47.476082090" lon="11.482977429">
        <ele>1297.4</ele>
        <time>2022-01-26T09:42:13</time>
      </trkpt>
      <trkpt lat="47.476293147" lon="11.483000983">
        <ele>1298.9</ele>
        <time>2022-01-26T09:42:37</time>
      </trkpt>
      <trkpt lat="47.476423988" lon="11.482883049">
        <ele>1299.8</ele>
        <time>2022-01-26T09:42:55</time>
      </trkpt>
      <trkpt lat="47.476449469" lon="11.482678447">
        <ele>1300.8</ele>
        <time>2022-01-26T09:43:13</time>
      </trkpt>
      <trkpt lat="47.476403201" lon="11.482259771">
        <ele>1303.2</ele>
        <time>2022-01-26T09:43:51</time>
      </trkpt>
      <trkpt lat="47.476399932" lon="11.481954418">
        <ele>1306.6</ele>
        <time>2022-01-26T09:44:18</time>
      </trkpt>
      <trkpt lat="47.476302367" lon="11.481372044">
        <ele>1310.9</ele>
        <time>2022-01-26T09:45:10</time>
      </trkpt>
      <trkpt lat="47.476353748" lon="11.481201723">
        <ele>1312.3</ele>
        <time>2022-01-26T09:45:25</time>
      </trkpt>
      <trkpt lat="47.476453492" lon="11.481044227">
        <ele>1314.3</ele>
        <time>2022-01-26T09:45:43</time>
      </trkpt>
      <trkpt lat="47.476796815" lon="11.480621276">
        <ele>1319.5</ele>
        <time>2022-01-26T09:46:38</time>
      </trkpt>
      <trkpt lat="47.477044249" lon="11.480054911">
        <ele>1325.8</ele>
        <time>2022-01-26T09:47:38</time>
      </trkpt>
      <trkpt lat="47.477133265" lon="11.479912586">
        <ele>1327.7</ele>
        <time>2022-01-26T09:47:55</time>
      </trkpt>
      <trkpt lat="47.477214988" lon="11.479823822">
        <ele>1329.2</ele>
        <time>2022-01-26T09:48:16</time>
      </trkpt>
      <trkpt lat="47.477272488" lon="11.479793228">
        <ele>1329.6</ele>
        <time>2022-01-26T09:48:35</time>
      </trkpt>
      <trkpt lat="47.477399977" lon="11.479833880">
        <ele>1330.6</ele>
        <time>2022-01-26T09:48:53</time>
      </trkpt>
      <trkpt lat="47.477701474" lon="11.480299747">
        <ele>1338.3</ele>
        <time>2022-01-26T09:49:50</time>
      </trkpt>
      <trkpt lat="47.477807337" lon="11.480437377">
        <ele>1340.2</ele>
        <time>2022-01-26T09:50:08</time>
      </trkpt>
      <trkpt lat="47.477948237" lon="11.480574338">
        <ele>1342.6</ele>
        <time>2022-01-26T09:50:30</time>
      </trkpt>
      <trkpt lat="47.478196677" lon="11.480753124">
        <ele>1346.9</ele>
        <time>2022-01-26T09:51:06</time>
      </trkpt>
      <trkpt lat="47.478362722" lon="11.480833506">
        <ele>1348.9</ele>
        <time>2022-01-26T09:51:28</time>
      </trkpt>
      <trkpt lat="47.478662627" lon="11.480939705">
        <ele>1352.7</ele>
        <time>2022-01-26T09:52:05</time>
      </trkpt>
      <trkpt lat="47.479017936" lon="11.481032744">
        <ele>1357.0</ele>
        <time>2022-01-26T09:52:54</time>
      </trkpt>
      <trkpt lat="47.479745150" lon="11.481348071">
        <ele>1365.2</ele>
        <time>2022-01-26T09:54:28</time>
      </trkpt>
      <trkpt lat="47.479881691" lon="11.481338181">
        <ele>1367.1</ele>
        <time>2022-01-26T09:54:45</time>
      </trkpt>
      <trkpt lat="47.480040193" lon="11.481380090">
        <ele>1368.6</ele>
        <time>2022-01-26T09:55:04</time>
      </trkpt>
      <trkpt lat="47.480276981" lon="11.481671864">
        <ele>1369.5</ele>
        <time>2022-01-26T09:55:50</time>
      </trkpt>
      <trkpt lat="47.480408661" lon="11.481785942">
        <ele>1370.0</ele>
        <time>2022-01-26T09:56:07</time>
      </trkpt>
      <trkpt lat="47.480589626" lon="11.481897673">
        <ele>1371.5</ele>
        <time>2022-01-26T09:56:29</time>
      </trkpt>
      <trkpt lat="47.480708398" lon="11.481999261">
        <ele>1372.4</ele>
        <time>2022-01-26T09:56:46</time>
      </trkpt>
      <trkpt lat="47.480835300" lon="11.482027927">
        <ele>1373.4</ele>
        <time>2022-01-26T09:57:03</time>
      </trkpt>
      <trkpt lat="47.480917778" lon="11.481895829">
        <ele>1374.8</ele>
        <time>2022-01-26T09:57:19</time>
      </trkpt>
      <trkpt lat="47.480971422" lon="11.480817581">
        <ele>1381.1</ele>
        <time>2022-01-26T09:59:05</time>
      </trkpt>
      <trkpt lat="47.481074855" lon="11.480341321">
        <ele>1384.4</ele>
        <time>2022-01-26T09:59:46</time>
      </trkpt>
      <trkpt lat="47.481089020" lon="11.480140155">
        <ele>1385.4</ele>
        <time>2022-01-26T10:00:03</time>
      </trkpt>
      <trkpt lat="47.481051050" lon="11.479271622">
        <ele>1393.1</ele>
        <time>2022-01-26T10:01:18</time>
      </trkpt>
      <trkpt lat="47.480950551" lon="11.478274511">
        <ele>1401.3</ele>
        <time>2022-01-26T10:02:52</time>
      </trkpt>
      <trkpt lat="47.481014086" lon="11.477049748">
        <ele>1410.4</ele>
        <time>2022-01-26T10:04:34</time>
      </trkpt>
      <trkpt lat="47.481078040" lon="11.476828130">
        <ele>1412.8</ele>
        <time>2022-01-26T10:04:55</time>
      </trkpt>
      <trkpt lat="47.481214330" lon="11.476741126">
        <ele>1415.2</ele>
        <time>2022-01-26T10:05:15</time>
      </trkpt>
      <trkpt lat="47.481514569" lon="11.476907255">
        <ele>1421.0</ele>
        <time>2022-01-26T10:05:56</time>
      </trkpt>
      <trkpt lat="47.481659912" lon="11.476926282">
        <ele>1423.4</ele>
        <time>2022-01-26T10:06:15</time>
      </trkpt>
      <trkpt lat="47.481776252" lon="11.477051424">
        <ele>1424.8</ele>
        <time>2022-01-26T10:06:34</time>
      </trkpt>
      <trkpt lat="47.481831238" lon="11.477192575">
        <ele>1427.2</ele>
        <time>2022-01-26T10:06:50</time>
      </trkpt>
      <trkpt lat="47.481866693" lon="11.477370691">
        <ele>1428.7</ele>
        <time>2022-01-26T10:07:09</time>
      </trkpt>
      <trkpt lat="47.481839284" lon="11.477413354">
        <ele>1429.6</ele>
        <time>2022-01-26T10:07:21</time>
      </trkpt>
      <trkpt lat="47.481763931" lon="11.477462472">
        <ele>1431.5</ele>
        <time>2022-01-26T10:07:35</time>
      </trkpt>
      <trkpt lat="47.481684051" lon="11.477590799">
        <ele>1433.0</ele>
        <time>2022-01-26T10:07:50</time>
      </trkpt>
      <trkpt lat="47.481643148" lon="11.477799425">
        <ele>1434.4</ele>
        <time>2022-01-26T10:08:09</time>
      </trkpt>
      <trkpt lat="47.481755465" lon="11.478411974">
        <ele>1439.2</ele>
        <time>2022-01-26T10:09:04</time>
      </trkpt>
      <trkpt lat="47.481756220" lon="11.478830483">
        <ele>1444.0</ele>
        <time>2022-01-26T10:09:56</time>
      </trkpt>
      <trkpt lat="47.481790669" lon="11.478913547">
        <ele>1445.0</ele>
        <time>2022-01-26T10:10:09</time>
      </trkpt>
      <trkpt lat="47.481874824" lon="11.478866022">
        <ele>1441.6</ele>
        <time>2022-01-26T10:13:27</time>
      </trkpt>
      <trkpt lat="47.481814977" lon="11.478860322">
        <ele>1441.6</ele>
        <time>2022-01-26T10:16:07</time>
      </trkpt>
      <trkpt lat="47.481877254" lon="11.479040952">
        <ele>1446.0</ele>
        <time>2022-01-26T10:16:54</time>
      </trkpt>
      <trkpt lat="47.481927462" lon="11.479099542">
        <ele>1448.8</ele>
        <time>2022-01-26T10:17:08</time>
      </trkpt>
      <trkpt lat="47.482088478" lon="11.479075654">
        <ele>1455.1</ele>
        <time>2022-01-26T10:17:45</time>
      </trkpt>
      <trkpt lat="47.482136339" lon="11.479010107">
        <ele>1456.5</ele>
        <time>2022-01-26T10:17:56</time>
      </trkpt>
      <trkpt lat="47.482238430" lon="11.478968952">
        <ele>1457.5</ele>
        <time>2022-01-26T10:18:11</time>
      </trkpt>
      <trkpt lat="47.482302301" lon="11.478994181">
        <ele>1458.9</ele>
        <time>2022-01-26T10:18:55</time>
      </trkpt>
      <trkpt lat="47.482371954" lon="11.479117647">
        <ele>1460.9</ele>
        <time>2022-01-26T10:19:13</time>
      </trkpt>
      <trkpt lat="47.482420318" lon="11.479320070">
        <ele>1465.2</ele>
        <time>2022-01-26T10:19:35</time>
      </trkpt>
      <trkpt lat="47.482387293" lon="11.479507908">
        <ele>1467.1</ele>
        <time>2022-01-26T10:19:53</time>
      </trkpt>
      <trkpt lat="47.482385114" lon="11.479607234">
        <ele>1469.5</ele>
        <time>2022-01-26T10:20:08</time>
      </trkpt>
      <trkpt lat="47.482441273" lon="11.479693064">
        <ele>1472.4</ele>
        <time>2022-01-26T10:20:25</time>
      </trkpt>
      <trkpt lat="47.482632967" lon="11.479907474">
        <ele>1480.6</ele>
        <time>2022-01-26T10:21:16</time>
      </trkpt>
      <trkpt lat="47.482637996" lon="11.480111321">
        <ele>1484.4</ele>
        <time>2022-01-26T10:21:48</time>
      </trkpt>
      <trkpt lat="47.482662303" lon="11.480198493">
        <ele>1486.8</ele>
        <time>2022-01-26T10:22:04</time>
      </trkpt>
      <trkpt lat="47.482666997" lon="11.480307877">
        <ele>1489.2</ele>
        <time>2022-01-26T10:22:19</time>
      </trkpt>
      <trkpt lat="47.482711840" lon="11.480546426">
        <ele>1493.1</ele>
        <time>2022-01-26T10:22:52</time>
      </trkpt>
      <trkpt lat="47.482692981" lon="11.480653379">
        <ele>1496.0</ele>
        <time>2022-01-26T10:23:10</time>
      </trkpt>
      <trkpt lat="47.482756181" lon="11.480721105">
        <ele>1498.3</ele>
        <time>2022-01-26T10:23:25</time>
      </trkpt>
      <trkpt lat="47.482846118" lon="11.480927970">
        <ele>1504.1</ele>
        <time>2022-01-26T10:24:01</time>
      </trkpt>
      <trkpt lat="47.482901355" lon="11.481006341">
        <ele>1506.5</ele>
        <time>2022-01-26T10:24:17</time>
      </trkpt>
      <trkpt lat="47.482962040" lon="11.481051017">
        <ele>1508.9</ele>
        <time>2022-01-26T10:24:32</time>
      </trkpt>
      <trkpt lat="47.482992215" lon="11.481116563">
        <ele>1510.4</ele>
        <time>2022-01-26T10:24:46</time>
      </trkpt>
      <trkpt lat="47.482996658" lon="11.481173309">
        <ele>1511.8</ele>
        <time>2022-01-26T10:24:58</time>
      </trkpt>
      <trkpt lat="47.482971679" lon="11.481210860">
        <ele>1512.3</ele>
        <time>2022-01-26T10:25:13</time>
      </trkpt>
      <trkpt lat="47.483002106" lon="11.481315885">
        <ele>1511.8</ele>
        <time>2022-01-26T10:25:29</time>
      </trkpt>
      <trkpt lat="47.483037310" lon="11.481367266">
        <ele>1513.2</ele>
        <time>2022-01-26T10:25:40</time>
      </trkpt>
      <trkpt lat="47.483034711" lon="11.481562061">
        <ele>1516.6</ele>
        <time>2022-01-26T10:26:36</time>
      </trkpt>
      <trkpt lat="47.483165050" lon="11.481871689">
        <ele>1524.8</ele>
        <time>2022-01-26T10:27:27</time>
      </trkpt>
      <trkpt lat="47.483167565" lon="11.482149130">
        <ele>1530.6</ele>
        <time>2022-01-26T10:28:01</time>
      </trkpt>
      <trkpt lat="47.483232692" lon="11.482449537">
        <ele>1534.9</ele>
        <time>2022-01-26T10:28:35</time>
      </trkpt>
      <trkpt lat="47.483286001" lon="11.482574930">
        <ele>1537.3</ele>
        <time>2022-01-26T10:28:53</time>
      </trkpt>
      <trkpt lat="47.483342746" lon="11.482886486">
        <ele>1543.0</ele>
        <time>2022-01-26T10:29:29</time>
      </trkpt>
      <trkpt lat="47.483319528" lon="11.483027134">
        <ele>1545.0</ele>
        <time>2022-01-26T10:29:45</time>
      </trkpt>
      <trkpt lat="47.483320534" lon="11.483235424">
        <ele>1546.9</ele>
        <time>2022-01-26T10:30:04</time>
      </trkpt>
      <trkpt lat="47.483392954" lon="11.483550584">
        <ele>1548.8</ele>
        <time>2022-01-26T10:30:36</time>
      </trkpt>
      <trkpt lat="47.483393624" lon="11.483702129">
        <ele>1551.2</ele>
        <time>2022-01-26T10:30:53</time>
      </trkpt>
      <trkpt lat="47.483473923" lon="11.483848980">
        <ele>1555.1</ele>
        <time>2022-01-26T10:31:25</time>
      </trkpt>
      <trkpt lat="47.483474342" lon="11.483909916">
        <ele>1557.5</ele>
        <time>2022-01-26T10:31:39</time>
      </trkpt>
      <trkpt lat="47.483524550" lon="11.483986946">
        <ele>1559.4</ele>
        <time>2022-01-26T10:31:57</time>
      </trkpt>
      <trkpt lat="47.483579703" lon="11.484155338">
        <ele>1562.8</ele>
        <time>2022-01-26T10:32:26</time>
      </trkpt>
      <trkpt lat="47.483606106" lon="11.484310152">
        <ele>1564.7</ele>
        <time>2022-01-26T10:32:46</time>
      </trkpt>
      <trkpt lat="47.483604010" lon="11.485058572">
        <ele>1576.7</ele>
        <time>2022-01-26T10:34:19</time>
      </trkpt>
      <trkpt lat="47.483677687" lon="11.485219672">
        <ele>1581.0</ele>
        <time>2022-01-26T10:34:47</time>
      </trkpt>
      <trkpt lat="47.483636867" lon="11.485305084">
        <ele>1583.9</ele>
        <time>2022-01-26T10:35:03</time>
      </trkpt>
      <trkpt lat="47.483684979" lon="11.485460317">
        <ele>1588.2</ele>
        <time>2022-01-26T10:35:32</time>
      </trkpt>
      <trkpt lat="47.483657487" lon="11.485542208">
        <ele>1590.6</ele>
        <time>2022-01-26T10:35:46</time>
      </trkpt>
      <trkpt lat="47.483692104" lon="11.485574059">
        <ele>1592.6</ele>
        <time>2022-01-26T10:35:57</time>
      </trkpt>
      <trkpt lat="47.483665869" lon="11.485645138">
        <ele>1594.0</ele>
        <time>2022-01-26T10:36:10</time>
      </trkpt>
      <trkpt lat="47.483694702" lon="11.485699033">
        <ele>1596.4</ele>
        <time>2022-01-26T10:36:24</time>
      </trkpt>
      <trkpt lat="47.483701743" lon="11.485758377">
        <ele>1598.8</ele>
        <time>2022-01-26T10:36:38</time>
      </trkpt>
      <trkpt lat="47.483727559" lon="11.485786708">
        <ele>1600.2</ele>
        <time>2022-01-26T10:36:54</time>
      </trkpt>
      <trkpt lat="47.483722530" lon="11.485827444">
        <ele>1601.7</ele>
        <time>2022-01-26T10:37:07</time>
      </trkpt>
      <trkpt lat="47.483744575" lon="11.485873712">
        <ele>1603.6</ele>
        <time>2022-01-26T10:37:19</time>
      </trkpt>
      <trkpt lat="47.483713394" lon="11.485982006">
        <ele>1606.5</ele>
        <time>2022-01-26T10:37:40</time>
      </trkpt>
      <trkpt lat="47.483755220" lon="11.486074710">
        <ele>1609.4</ele>
        <time>2022-01-26T10:38:22</time>
      </trkpt>
      <trkpt lat="47.483850103" lon="11.486505624">
        <ele>1617.1</ele>
        <time>2022-01-26T10:39:50</time>
      </trkpt>
      <trkpt lat="47.483858904" lon="11.486620540">
        <ele>1619.5</ele>
        <time>2022-01-26T10:40:06</time>
      </trkpt>
      <trkpt lat="47.483897712" lon="11.486734450">
        <ele>1621.4</ele>
        <time>2022-01-26T10:40:21</time>
      </trkpt>
      <trkpt lat="47.483899221" lon="11.486959839">
        <ele>1626.7</ele>
        <time>2022-01-26T10:40:52</time>
      </trkpt>
      <trkpt lat="47.483913135" lon="11.487115156">
        <ele>1629.6</ele>
        <time>2022-01-26T10:41:12</time>
      </trkpt>
      <trkpt lat="47.484008605" lon="11.487340797">
        <ele>1633.4</ele>
        <time>2022-01-26T10:41:48</time>
      </trkpt>
      <trkpt lat="47.484083455" lon="11.487603150">
        <ele>1638.2</ele>
        <time>2022-01-26T10:42:24</time>
      </trkpt>
      <trkpt lat="47.484080354" lon="11.487722676">
        <ele>1640.6</ele>
        <time>2022-01-26T10:42:41</time>
      </trkpt>
      <trkpt lat="47.484023022" lon="11.487890566">
        <ele>1645.4</ele>
        <time>2022-01-26T10:43:10</time>
      </trkpt>
      <trkpt lat="47.483974323" lon="11.488140766">
        <ele>1651.7</ele>
        <time>2022-01-26T10:43:49</time>
      </trkpt>
      <trkpt lat="47.483961834" lon="11.488381242">
        <ele>1656.5</ele>
        <time>2022-01-26T10:44:26</time>
      </trkpt>
      <trkpt lat="47.483970802" lon="11.488490794">
        <ele>1659.4</ele>
        <time>2022-01-26T10:44:45</time>
      </trkpt>
      <trkpt lat="47.484018160" lon="11.488631023">
        <ele>1663.7</ele>
        <time>2022-01-26T10:45:11</time>
      </trkpt>
      <trkpt lat="47.483982956" lon="11.488769408">
        <ele>1670.9</ele>
        <time>2022-01-26T10:45:56</time>
      </trkpt>
      <trkpt lat="47.483955463" lon="11.488853311">
        <ele>1672.8</ele>
        <time>2022-01-26T10:46:22</time>
      </trkpt>
      <trkpt lat="47.483967952" lon="11.488955151">
        <ele>1673.8</ele>
        <time>2022-01-26T10:46:40</time>
      </trkpt>
      <trkpt lat="47.484032828" lon="11.489094039">
        <ele>1679.1</ele>
        <time>2022-01-26T10:47:11</time>
      </trkpt>
      <trkpt lat="47.484039450" lon="11.489154808">
        <ele>1680.5</ele>
        <time>2022-01-26T10:47:32</time>
      </trkpt>
      <trkpt lat="47.484046072" lon="11.489341725">
        <ele>1684.4</ele>
        <time>2022-01-26T10:48:15</time>
      </trkpt>
      <trkpt lat="47.484036516" lon="11.489429651">
        <ele>1686.8</ele>
        <time>2022-01-26T10:48:30</time>
      </trkpt>
      <trkpt lat="47.483998211" lon="11.489530150">
        <ele>1691.1</ele>
        <time>2022-01-26T10:48:59</time>
      </trkpt>
      <trkpt lat="47.484005839" lon="11.489661243">
        <ele>1694.0</ele>
        <time>2022-01-26T10:50:33</time>
      </trkpt>
      <trkpt lat="47.484140871" lon="11.489900714">
        <ele>1702.2</ele>
        <time>2022-01-26T10:51:21</time>
      </trkpt>
      <trkpt lat="47.484131316" lon="11.489967685">
        <ele>1704.1</ele>
        <time>2022-01-26T10:51:37</time>
      </trkpt>
      <trkpt lat="47.484082114" lon="11.490013870">
        <ele>1706.5</ele>
        <time>2022-01-26T10:51:53</time>
      </trkpt>
      <trkpt lat="47.484189570" lon="11.490335735">
        <ele>1714.7</ele>
        <time>2022-01-26T10:52:51</time>
      </trkpt>
      <trkpt lat="47.484192587" lon="11.490408741">
        <ele>1717.0</ele>
        <time>2022-01-26T10:53:07</time>
      </trkpt>
      <trkpt lat="47.484086556" lon="11.490368340">
        <ele>1720.9</ele>
        <time>2022-01-26T10:53:53</time>
      </trkpt>
      <trkpt lat="47.484138440" lon="11.490510330">
        <ele>1723.3</ele>
        <time>2022-01-26T10:54:23</time>
      </trkpt>
      <trkpt lat="47.484145565" lon="11.490577720">
        <ele>1724.7</ele>
        <time>2022-01-26T10:54:36</time>
      </trkpt>
      <trkpt lat="47.484109942" lon="11.490867483">
        <ele>1732.4</ele>
        <time>2022-01-26T10:55:36</time>
      </trkpt>
      <trkpt lat="47.484070966" lon="11.490757931">
        <ele>1734.4</ele>
        <time>2022-01-26T10:56:07</time>
      </trkpt>
      <trkpt lat="47.484046491" lon="11.490738234">
        <ele>1735.8</ele>
        <time>2022-01-26T10:56:21</time>
      </trkpt>
      <trkpt lat="47.484048419" lon="11.490817275">
        <ele>1737.2</ele>
        <time>2022-01-26T10:57:24</time>
      </trkpt>
      <trkpt lat="47.483935682" lon="11.490706801">
        <ele>1737.2</ele>
        <time>2022-01-26T10:59:04</time>
      </trkpt>
      <trkpt lat="47.483860413" lon="11.490715183">
        <ele>1737.2</ele>
        <time>2022-01-26T10:59:20</time>
      </trkpt>
      <trkpt lat="47.483737785" lon="11.490786010">
        <ele>1744.9</ele>
        <time>2022-01-26T10:59:49</time>
      </trkpt>
      <trkpt lat="47.483647177" lon="11.490857089">
        <ele>1749.7</ele>
        <time>2022-01-26T11:00:41</time>
      </trkpt>
      <trkpt lat="47.483765027" lon="11.490987176">
        <ele>1753.6</ele>
        <time>2022-01-26T11:01:29</time>
      </trkpt>
      <trkpt lat="47.483836105" lon="11.491166633">
        <ele>1757.9</ele>
        <time>2022-01-26T11:02:02</time>
      </trkpt>
      <trkpt lat="47.483652374" lon="11.491125394">
        <ele>1762.2</ele>
        <time>2022-01-26T11:02:42</time>
      </trkpt>
      <trkpt lat="47.483563777" lon="11.491177026">
        <ele>1764.2</ele>
        <time>2022-01-26T11:03:00</time>
      </trkpt>
      <trkpt lat="47.483518347" lon="11.491253302">
        <ele>1767.0</ele>
        <time>2022-01-26T11:03:15</time>
      </trkpt>
      <trkpt lat="47.483572075" lon="11.491442146">
        <ele>1771.8</ele>
        <time>2022-01-26T11:03:51</time>
      </trkpt>
      <trkpt lat="47.483585570" lon="11.491548428">
        <ele>1771.8</ele>
        <time>2022-01-26T11:04:07</time>
      </trkpt>
      <trkpt lat="47.483576182" lon="11.491825366">
        <ele>1775.2</ele>
        <time>2022-01-26T11:04:42</time>
      </trkpt>
      <trkpt lat="47.483533937" lon="11.492076069">
        <ele>1779.5</ele>
        <time>2022-01-26T11:05:18</time>
      </trkpt>
      <trkpt lat="47.483479120" lon="11.492276900">
        <ele>1785.8</ele>
        <time>2022-01-26T11:05:52</time>
      </trkpt>
      <trkpt lat="47.483462105" lon="11.492415620">
        <ele>1791.1</ele>
        <time>2022-01-26T11:06:29</time>
      </trkpt>
      <trkpt lat="47.483475432" lon="11.492424505">
        <ele>1792.0</ele>
        <time>2022-01-26T11:06:48</time>
      </trkpt>
      <trkpt lat="47.483478785" lon="11.492541600">
        <ele>1794.9</ele>
        <time>2022-01-26T11:07:12</time>
      </trkpt>
      <trkpt lat="47.483468894" lon="11.492703371">
        <ele>1800.7</ele>
        <time>2022-01-26T11:08:04</time>
      </trkpt>
      <trkpt lat="47.483436372" lon="11.492891545">
        <ele>1805.5</ele>
        <time>2022-01-26T11:08:38</time>
      </trkpt>
      <trkpt lat="47.483379962" lon="11.493024565">
        <ele>1809.8</ele>
        <time>2022-01-26T11:10:04</time>
      </trkpt>
      <trkpt lat="47.483355068" lon="11.493058596">
        <ele>1809.8</ele>
        <time>2022-01-26T11:10:57</time>
      </trkpt>
      <trkpt lat="47.483286085" lon="11.493092542">
        <ele>1809.3</ele>
        <time>2022-01-26T11:11:16</time>
      </trkpt>
      <trkpt lat="47.483340148" lon="11.493065804">
        <ele>1809.3</ele>
        <time>2022-01-26T11:11:32</time>
      </trkpt>
      <trkpt lat="47.483517593" lon="11.493043928">
        <ele>1813.7</ele>
        <time>2022-01-26T11:12:22</time>
      </trkpt>
      <trkpt lat="47.483541062" lon="11.493105115">
        <ele>1815.6</ele>
        <time>2022-01-26T11:12:34</time>
      </trkpt>
      <trkpt lat="47.483478785" lon="11.493172506">
        <ele>1817.0</ele>
        <time>2022-01-26T11:12:47</time>
      </trkpt>
      <trkpt lat="47.483396642" lon="11.493435195">
        <ele>1822.3</ele>
        <time>2022-01-26T11:13:21</time>
      </trkpt>
      <trkpt lat="47.483321792" lon="11.493763011">
        <ele>1825.7</ele>
        <time>2022-01-26T11:14:06</time>
      </trkpt>
      <trkpt lat="47.483286001" lon="11.494132569">
        <ele>1828.6</ele>
        <time>2022-01-26T11:14:46</time>
      </trkpt>
      <trkpt lat="47.483314080" lon="11.494210186">
        <ele>1830.0</ele>
        <time>2022-01-26T11:15:03</time>
      </trkpt>
      <trkpt lat="47.483364120" lon="11.494109435">
        <ele>1833.4</ele>
        <time>2022-01-26T11:15:32</time>
      </trkpt>
      <trkpt lat="47.483400917" lon="11.494149668">
        <ele>1834.8</ele>
        <time>2022-01-26T11:15:44</time>
      </trkpt>
      <trkpt lat="47.483452801" lon="11.494258130">
        <ele>1836.3</ele>
        <time>2022-01-26T11:16:02</time>
      </trkpt>
      <trkpt lat="47.483489681" lon="11.494291825">
        <ele>1837.7</ele>
        <time>2022-01-26T11:16:16</time>
      </trkpt>
      <trkpt lat="47.483547851" lon="11.494546384">
        <ele>1838.2</ele>
        <time>2022-01-26T11:17:30</time>
      </trkpt>
      <trkpt lat="47.483739378" lon="11.495134123">
        <ele>1840.6</ele>
        <time>2022-01-26T11:18:25</time>
      </trkpt>
      <trkpt lat="47.483828478" lon="11.495459843">
        <ele>1841.5</ele>
        <time>2022-01-26T11:18:52</time>
      </trkpt>
      <trkpt lat="47.483882960" lon="11.495756395">
        <ele>1843.0</ele>
        <time>2022-01-26T11:20:26</time>
      </trkpt>
      <trkpt lat="47.484012293" lon="11.496199295">
        <ele>1840.6</ele>
        <time>2022-01-26T11:22:04</time>
      </trkpt>
      <trkpt lat="47.484125197" lon="11.496389732">
        <ele>1841.5</ele>
        <time>2022-01-26T11:22:22</time>
      </trkpt>
      <trkpt lat="47.484406242" lon="11.496638674">
        <ele>1844.9</ele>
        <time>2022-01-26T11:23:09</time>
      </trkpt>
      <trkpt lat="47.484490061" lon="11.496765828">
        <ele>1847.3</ele>
        <time>2022-01-26T11:23:28</time>
      </trkpt>
      <trkpt lat="47.484697765" lon="11.497156173">
        <ele>1855.0</ele>
        <time>2022-01-26T11:24:25</time>
      </trkpt>
      <trkpt lat="47.484794911" lon="11.497380054">
        <ele>1860.3</ele>
        <time>2022-01-26T11:25:02</time>
      </trkpt>
      <trkpt lat="47.484876132" lon="11.497617178">
        <ele>1866.1</ele>
        <time>2022-01-26T11:25:40</time>
      </trkpt>
      <trkpt lat="47.485074112" lon="11.497923369">
        <ele>1871.8</ele>
        <time>2022-01-26T11:26:31</time>
      </trkpt>
      <trkpt lat="47.485197075" lon="11.498311199">
        <ele>1876.6</ele>
        <time>2022-01-26T11:27:16</time>
      </trkpt>
      <trkpt lat="47.485229429" lon="11.498670112">
        <ele>1879.5</ele>
        <time>2022-01-26T11:27:54</time>
      </trkpt>
      <trkpt lat="47.485269327" lon="11.498840433">
        <ele>1882.4</ele>
        <time>2022-01-26T11:28:16</time>
      </trkpt>
      <trkpt lat="47.485360354" lon="11.499427333">
        <ele>1888.2</ele>
        <time>2022-01-26T11:29:21</time>
      </trkpt>
      <trkpt lat="47.485406371" lon="11.499936367">
        <ele>1895.4</ele>
        <time>2022-01-26T11:30:27</time>
      </trkpt>
      <trkpt lat="47.485483652" lon="11.500320006">
        <ele>1904.5</ele>
        <time>2022-01-26T11:31:49</time>
      </trkpt>
      <trkpt lat="47.485500081" lon="11.500630472">
        <ele>1909.3</ele>
        <time>2022-01-26T11:32:28</time>
      </trkpt>
      <trkpt lat="47.485585408" lon="11.501112934">
        <ele>1917.5</ele>
        <time>2022-01-26T11:33:36</time>
      </trkpt>
      <trkpt lat="47.485563531" lon="11.501190718">
        <ele>1918.5</ele>
        <time>2022-01-26T11:33:48</time>
      </trkpt>
      <trkpt lat="47.485613488" lon="11.501301862">
        <ele>1920.8</ele>
        <time>2022-01-26T11:34:07</time>
      </trkpt>
      <trkpt lat="47.485668389" lon="11.501605371">
        <ele>1928.1</ele>
        <time>2022-01-26T11:34:59</time>
      </trkpt>
      <trkpt lat="47.485709293" lon="11.502237366">
        <ele>1942.0</ele>
        <time>2022-01-26T11:36:36</time>
      </trkpt>
      <trkpt lat="47.485727230" lon="11.503443103">
        <ele>1968.4</ele>
        <time>2022-01-26T11:39:49</time>
      </trkpt>
      <trkpt lat="47.485794034" lon="11.503876364">
        <ele>1980.5</ele>
        <time>2022-01-26T11:41:16</time>
      </trkpt>
      <trkpt lat="47.485815408" lon="11.504449435">
        <ele>1995.8</ele>
        <time>2022-01-26T11:43:37</time>
      </trkpt>
      <trkpt lat="47.485832758" lon="11.504519088">
        <ele>1998.7</ele>
        <time>2022-01-26T11:44:36</time>
      </trkpt>
      <trkpt lat="47.485880284" lon="11.504532415">
        <ele>2000.2</ele>
        <time>2022-01-26T11:46:20</time>
      </trkpt>
      <trkpt lat="47.485919846" lon="11.504575750">
        <ele>2001.6</ele>
        <time>2022-01-26T11:48:16</time>
      </trkpt>
      <trkpt lat="47.485930743" lon="11.504565273">
        <ele>2001.6</ele>
        <time>2022-01-26T11:51:57</time>
      </trkpt>
      <trkpt lat="47.485734103" lon="11.504741711">
        <ele>2000.6</ele>
        <time>2022-01-26T11:55:45</time>
      </trkpt>
      <trkpt lat="47.485575015" lon="11.504632495">
        <ele>1993.4</ele>
        <time>2022-01-26T11:56:00</time>
      </trkpt>
      <trkpt lat="47.485250384" lon="11.504441975">
        <ele>1979.0</ele>
        <time>2022-01-26T11:57:01</time>
      </trkpt>
      <trkpt lat="47.485091077" lon="11.504189248">
        <ele>1949.8</ele>
        <time>2022-01-26T11:57:14</time>
      </trkpt>
      <trkpt lat="47.484762174" lon="11.503733156">
        <ele>1925.3</ele>
        <time>2022-01-26T11:58:04</time>
      </trkpt>
      <trkpt lat="47.484405517" lon="11.503252361">
        <ele>1897.0</ele>
        <time>2022-01-26T11:58:37</time>
      </trkpt>
      <trkpt lat="47.483969805" lon="11.502245788">
        <ele>1852.0</ele>
        <time>2022-01-26T11:59:37</time>
      </trkpt>
      <trkpt lat="47.483453974" lon="11.501369085">
        <ele>1831.0</ele>
        <time>2022-01-26T12:04:55</time>
      </trkpt>
      <trkpt lat="47.483254485" lon="11.501600258">
        <ele>1827.6</ele>
        <time>2022-01-26T12:05:04</time>
      </trkpt>
      <trkpt lat="47.483170247" lon="11.501762448">
        <ele>1825.7</ele>
        <time>2022-01-26T12:05:09</time>
      </trkpt>
      <trkpt lat="47.483160775" lon="11.501652561">
        <ele>1824.7</ele>
        <time>2022-01-26T12:05:14</time>
      </trkpt>
      <trkpt lat="47.483085673" lon="11.501721544">
        <ele>1820.9</ele>
        <time>2022-01-26T12:05:20</time>
      </trkpt>
      <trkpt lat="47.483043680" lon="11.501826234">
        <ele>1817.0</ele>
        <time>2022-01-26T12:05:37</time>
      </trkpt>
      <trkpt lat="47.483015852" lon="11.501857582">
        <ele>1816.5</ele>
        <time>2022-01-26T12:05:47</time>
      </trkpt>
      <trkpt lat="47.483003866" lon="11.501867725">
        <ele>1815.1</ele>
        <time>2022-01-26T12:05:59</time>
      </trkpt>
      <trkpt lat="47.482989030" lon="11.501830844">
        <ele>1815.1</ele>
        <time>2022-01-26T12:06:08</time>
      </trkpt>
      <trkpt lat="47.482897751" lon="11.501983311">
        <ele>1810.3</ele>
        <time>2022-01-26T12:06:24</time>
      </trkpt>
      <trkpt lat="47.482833629" lon="11.502321856">
        <ele>1806.9</ele>
        <time>2022-01-26T12:06:38</time>
      </trkpt>
      <trkpt lat="47.482727682" lon="11.502506174">
        <ele>1805.0</ele>
        <time>2022-01-26T12:06:47</time>
      </trkpt>
      <trkpt lat="47.482705470" lon="11.502435598">
        <ele>1804.5</ele>
        <time>2022-01-26T12:07:05</time>
      </trkpt>
      <trkpt lat="47.482588710" lon="11.501834113">
        <ele>1796.8</ele>
        <time>2022-01-26T12:07:21</time>
      </trkpt>
      <trkpt lat="47.482491648" lon="11.501918435">
        <ele>1791.1</ele>
        <time>2022-01-26T12:07:29</time>
      </trkpt>
      <trkpt lat="47.482471112" lon="11.501959339">
        <ele>1789.2</ele>
        <time>2022-01-26T12:07:40</time>
      </trkpt>
      <trkpt lat="47.482494330" lon="11.501826905">
        <ele>1791.1</ele>
        <time>2022-01-26T12:07:50</time>
      </trkpt>
      <trkpt lat="47.482470777" lon="11.501660775">
        <ele>1787.7</ele>
        <time>2022-01-26T12:08:19</time>
      </trkpt>
      <trkpt lat="47.482422162" lon="11.501516607">
        <ele>1781.5</ele>
        <time>2022-01-26T12:08:37</time>
      </trkpt>
      <trkpt lat="47.482369691" lon="11.501139756">
        <ele>1775.7</ele>
        <time>2022-01-26T12:08:54</time>
      </trkpt>
      <trkpt lat="47.482336247" lon="11.501030792">
        <ele>1774.2</ele>
        <time>2022-01-26T12:08:58</time>
      </trkpt>
      <trkpt lat="47.482425515" lon="11.500908667">
        <ele>1771.8</ele>
        <time>2022-01-26T12:09:01</time>
      </trkpt>
      <trkpt lat="47.482501287" lon="11.500748070">
        <ele>1767.5</ele>
        <time>2022-01-26T12:09:08</time>
      </trkpt>
      <trkpt lat="47.482522577" lon="11.500605410">
        <ele>1765.6</ele>
        <time>2022-01-26T12:09:15</time>
      </trkpt>
      <trkpt lat="47.482527103" lon="11.500513628">
        <ele>1765.6</ele>
        <time>2022-01-26T12:09:19</time>
      </trkpt>
      <trkpt lat="47.482452756" lon="11.500549335">
        <ele>1761.3</ele>
        <time>2022-01-26T12:09:29</time>
      </trkpt>
      <trkpt lat="47.482463317" lon="11.500373567">
        <ele>1758.9</ele>
        <time>2022-01-26T12:09:37</time>
      </trkpt>
      <trkpt lat="47.482506484" lon="11.500179190">
        <ele>1755.0</ele>
        <time>2022-01-26T12:09:47</time>
      </trkpt>
      <trkpt lat="47.482484272" lon="11.499938965">
        <ele>1752.1</ele>
        <time>2022-01-26T12:09:54</time>
      </trkpt>
      <trkpt lat="47.482500616" lon="11.499863528">
        <ele>1748.8</ele>
        <time>2022-01-26T12:10:02</time>
      </trkpt>
      <trkpt lat="47.482487289" lon="11.499868305">
        <ele>1746.8</ele>
        <time>2022-01-26T12:10:07</time>
      </trkpt>
      <trkpt lat="47.482484691" lon="11.499796975">
        <ele>1744.0</ele>
        <time>2022-01-26T12:10:29</time>
      </trkpt>
      <trkpt lat="47.482502880" lon="11.499709217">
        <ele>1742.5</ele>
        <time>2022-01-26T12:10:39</time>
      </trkpt>
      <trkpt lat="47.482408667" lon="11.499624141">
        <ele>1741.6</ele>
        <time>2022-01-26T12:10:51</time>
      </trkpt>
      <trkpt lat="47.482241448" lon="11.499190042">
        <ele>1739.2</ele>
        <time>2022-01-26T12:10:56</time>
      </trkpt>
      <trkpt lat="47.482216638" lon="11.498820400">
        <ele>1734.8</ele>
        <time>2022-01-26T12:11:02</time>
      </trkpt>
      <trkpt lat="47.482185960" lon="11.498595262">
        <ele>1728.6</ele>
        <time>2022-01-26T12:11:10</time>
      </trkpt>
      <trkpt lat="47.482155701" lon="11.498539438">
        <ele>1727.6</ele>
        <time>2022-01-26T12:11:13</time>
      </trkpt>
      <trkpt lat="47.482030224" lon="11.498400215">
        <ele>1725.7</ele>
        <time>2022-01-26T12:11:20</time>
      </trkpt>
      <trkpt lat="47.481976496" lon="11.498064352">
        <ele>1724.7</ele>
        <time>2022-01-26T12:11:24</time>
      </trkpt>
      <trkpt lat="47.481978759" lon="11.497808788">
        <ele>1723.8</ele>
        <time>2022-01-26T12:11:28</time>
      </trkpt>
      <trkpt lat="47.481883457" lon="11.497748857">
        <ele>1720.4</ele>
        <time>2022-01-26T12:11:33</time>
      </trkpt>
      <trkpt lat="47.481775917" lon="11.497755814">
        <ele>1719.0</ele>
        <time>2022-01-26T12:11:46</time>
      </trkpt>
      <trkpt lat="47.481743982" lon="11.497821277">
        <ele>1717.5</ele>
        <time>2022-01-26T12:11:55</time>
      </trkpt>
      <trkpt lat="47.481748508" lon="11.497912472">
        <ele>1718.0</ele>
        <time>2022-01-26T12:12:46</time>
      </trkpt>
      <trkpt lat="47.481755800" lon="11.497875424">
        <ele>1722.3</ele>
        <time>2022-01-26T12:13:17</time>
      </trkpt>
      <trkpt lat="47.481740043" lon="11.497890428">
        <ele>1719.5</ele>
        <time>2022-01-26T12:34:09</time>
      </trkpt>
      <trkpt lat="47.481743647" lon="11.497876598">
        <ele>1722.3</ele>
        <time>2022-01-26T12:38:22</time>
      </trkpt>
      <trkpt lat="47.481744066" lon="11.497397069">
        <ele>1722.3</ele>
        <time>2022-01-26T12:42:30</time>
      </trkpt>
      <trkpt lat="47.481761668" lon="11.497314423">
        <ele>1723.8</ele>
        <time>2022-01-26T12:42:47</time>
      </trkpt>
      <trkpt lat="47.481805086" lon="11.497227587">
        <ele>1723.8</ele>
        <time>2022-01-26T12:43:07</time>
      </trkpt>
      <trkpt lat="47.481841464" lon="11.497086771">
        <ele>1726.7</ele>
        <time>2022-01-26T12:43:32</time>
      </trkpt>
      <trkpt lat="47.481896365" lon="11.496987613">
        <ele>1729.1</ele>
        <time>2022-01-26T12:43:51</time>
      </trkpt>
      <trkpt lat="47.481966438" lon="11.496904213">
        <ele>1731.0</ele>
        <time>2022-01-26T12:44:11</time>
      </trkpt>
      <trkpt lat="47.482058890" lon="11.496839840">
        <ele>1733.9</ele>
        <time>2022-01-26T12:44:37</time>
      </trkpt>
      <trkpt lat="47.482099039" lon="11.496393671">
        <ele>1744.5</ele>
        <time>2022-01-26T12:45:51</time>
      </trkpt>
      <trkpt lat="47.482198616" lon="11.496202899">
        <ele>1749.7</ele>
        <time>2022-01-26T12:46:35</time>
      </trkpt>
      <trkpt lat="47.482212698" lon="11.496074908">
        <ele>1752.6</ele>
        <time>2022-01-26T12:46:59</time>
      </trkpt>
      <trkpt lat="47.482119240" lon="11.495907353">
        <ele>1758.9</ele>
        <time>2022-01-26T12:47:36</time>
      </trkpt>
      <trkpt lat="47.482099542" lon="11.495781122">
        <ele>1761.8</ele>
        <time>2022-01-26T12:47:57</time>
      </trkpt>
      <trkpt lat="47.482104320" lon="11.495563109">
        <ele>1768.0</ele>
        <time>2022-01-26T12:48:42</time>
      </trkpt>
      <trkpt lat="47.482004408" lon="11.495340150">
        <ele>1775.2</ele>
        <time>2022-01-26T12:49:43</time>
      </trkpt>
      <trkpt lat="47.482002983" lon="11.495276783">
        <ele>1775.2</ele>
        <time>2022-01-26T12:50:14</time>
      </trkpt>
      <trkpt lat="47.482060650" lon="11.495006802">
        <ele>1781.0</ele>
        <time>2022-01-26T12:50:51</time>
      </trkpt>
      <trkpt lat="47.482176823" lon="11.494615199">
        <ele>1787.7</ele>
        <time>2022-01-26T12:51:50</time>
      </trkpt>
      <trkpt lat="47.482214291" lon="11.494502630">
        <ele>1789.6</ele>
        <time>2022-01-26T12:52:09</time>
      </trkpt>
      <trkpt lat="47.482317472" lon="11.494331639">
        <ele>1792.0</ele>
        <time>2022-01-26T12:53:04</time>
      </trkpt>
      <trkpt lat="47.482439261" lon="11.494223261">
        <ele>1795.4</ele>
        <time>2022-01-26T12:53:58</time>
      </trkpt>
      <trkpt lat="47.482603798" lon="11.494130641">
        <ele>1798.8</ele>
        <time>2022-01-26T12:54:32</time>
      </trkpt>
      <trkpt lat="47.482817788" lon="11.493816990">
        <ele>1803.6</ele>
        <time>2022-01-26T12:55:26</time>
      </trkpt>
      <trkpt lat="47.483028006" lon="11.493399069">
        <ele>1812.2</ele>
        <time>2022-01-26T12:56:51</time>
      </trkpt>
      <trkpt lat="47.483094474" lon="11.493304353">
        <ele>1814.2</ele>
        <time>2022-01-26T12:57:08</time>
      </trkpt>
      <trkpt lat="47.483335957" lon="11.493100254">
        <ele>1820.4</ele>
        <time>2022-01-26T12:57:56</time>
      </trkpt>
      <trkpt lat="47.483457746" lon="11.493041580">
        <ele>1822.8</ele>
        <time>2022-01-26T12:58:15</time>
      </trkpt>
      <trkpt lat="47.483581295" lon="11.492945692">
        <ele>1820.4</ele>
        <time>2022-01-26T13:03:16</time>
      </trkpt>
      <trkpt lat="47.483497057" lon="11.492972849">
        <ele>1818.0</ele>
        <time>2022-01-26T13:04:48</time>
      </trkpt>
      <trkpt lat="47.483547516" lon="11.492720721">
        <ele>1812.2</ele>
        <time>2022-01-26T13:05:23</time>
      </trkpt>
      <trkpt lat="47.483530669" lon="11.492695324">
        <ele>1810.8</ele>
        <time>2022-01-26T13:05:37</time>
      </trkpt>
      <trkpt lat="47.483552629" lon="11.492638662">
        <ele>1808.4</ele>
        <time>2022-01-26T13:05:52</time>
      </trkpt>
      <trkpt lat="47.483548271" lon="11.492602285">
        <ele>1807.4</ele>
        <time>2022-01-26T13:06:05</time>
      </trkpt>
      <trkpt lat="47.483506948" lon="11.492576050">
        <ele>1806.0</ele>
        <time>2022-01-26T13:06:18</time>
      </trkpt>
      <trkpt lat="47.483542738" lon="11.492480412">
        <ele>1803.6</ele>
        <time>2022-01-26T13:06:32</time>
      </trkpt>
      <trkpt lat="47.483533099" lon="11.492434479">
        <ele>1801.7</ele>
        <time>2022-01-26T13:06:53</time>
      </trkpt>
      <trkpt lat="47.483484736" lon="11.492371615">
        <ele>1800.7</ele>
        <time>2022-01-26T13:06:58</time>
      </trkpt>
      <trkpt lat="47.483530585" lon="11.492259130">
        <ele>1798.3</ele>
        <time>2022-01-26T13:07:03</time>
      </trkpt>
      <trkpt lat="47.483533937" lon="11.492156200">
        <ele>1796.4</ele>
        <time>2022-01-26T13:07:07</time>
      </trkpt>
      <trkpt lat="47.483576685" lon="11.491924943">
        <ele>1792.0</ele>
        <time>2022-01-26T13:07:14</time>
      </trkpt>
      <trkpt lat="47.483587666" lon="11.491487492">
        <ele>1780.0</ele>
        <time>2022-01-26T13:07:32</time>
      </trkpt>
      <trkpt lat="47.483577188" lon="11.491434937">
        <ele>1779.5</ele>
        <time>2022-01-26T13:07:49</time>
      </trkpt>
      <trkpt lat="47.483622534" lon="11.491157496">
        <ele>1776.2</ele>
        <time>2022-01-26T13:08:00</time>
      </trkpt>
      <trkpt lat="47.483643489" lon="11.491089268">
        <ele>1771.8</ele>
        <time>2022-01-26T13:08:04</time>
      </trkpt>
      <trkpt lat="47.483733930" lon="11.490984075">
        <ele>1763.2</ele>
        <time>2022-01-26T13:08:19</time>
      </trkpt>
      <trkpt lat="47.483693697" lon="11.490927581">
        <ele>1760.8</ele>
        <time>2022-01-26T13:08:24</time>
      </trkpt>
      <trkpt lat="47.483723704" lon="11.490839822">
        <ele>1759.3</ele>
        <time>2022-01-26T13:08:30</time>
      </trkpt>
      <trkpt lat="47.483829064" lon="11.490767906">
        <ele>1751.7</ele>
        <time>2022-01-26T13:08:41</time>
      </trkpt>
      <trkpt lat="47.483906429" lon="11.490763295">
        <ele>1748.8</ele>
        <time>2022-01-26T13:08:59</time>
      </trkpt>
      <trkpt lat="47.484006509" lon="11.490846192">
        <ele>1747.3</ele>
        <time>2022-01-26T13:09:07</time>
      </trkpt>
      <trkpt lat="47.484045401" lon="11.490746448">
        <ele>1744.9</ele>
        <time>2022-01-26T13:09:13</time>
      </trkpt>
      <trkpt lat="47.484104997" lon="11.490736725">
        <ele>1743.0</ele>
        <time>2022-01-26T13:09:17</time>
      </trkpt>
      <trkpt lat="47.484150594" lon="11.490674699">
        <ele>1739.2</ele>
        <time>2022-01-26T13:09:20</time>
      </trkpt>
      <trkpt lat="47.484137518" lon="11.490593562">
        <ele>1736.3</ele>
        <time>2022-01-26T13:09:24</time>
      </trkpt>
      <trkpt lat="47.484184122" lon="11.490528854">
        <ele>1732.9</ele>
        <time>2022-01-26T13:09:30</time>
      </trkpt>
      <trkpt lat="47.484155623" lon="11.490335902">
        <ele>1726.2</ele>
        <time>2022-01-26T13:09:38</time>
      </trkpt>
      <trkpt lat="47.484166771" lon="11.490203887">
        <ele>1722.8</ele>
        <time>2022-01-26T13:09:44</time>
      </trkpt>
      <trkpt lat="47.484129388" lon="11.490034740">
        <ele>1718.0</ele>
        <time>2022-01-26T13:09:51</time>
      </trkpt>
      <trkpt lat="47.484166352" lon="11.489946144">
        <ele>1713.2</ele>
        <time>2022-01-26T13:09:58</time>
      </trkpt>
      <trkpt lat="47.484145816" lon="11.489836341">
        <ele>1709.4</ele>
        <time>2022-01-26T13:10:02</time>
      </trkpt>
      <trkpt lat="47.484088987" lon="11.489801221">
        <ele>1706.0</ele>
        <time>2022-01-26T13:10:07</time>
      </trkpt>
      <trkpt lat="47.484127879" lon="11.489711367">
        <ele>1703.1</ele>
        <time>2022-01-26T13:10:23</time>
      </trkpt>
      <trkpt lat="47.484186469" lon="11.489684209">
        <ele>1703.1</ele>
        <time>2022-01-26T13:10:25</time>
      </trkpt>
      <trkpt lat="47.484082449" lon="11.489479858">
        <ele>1699.3</ele>
        <time>2022-01-26T13:10:30</time>
      </trkpt>
      <trkpt lat="47.484019753" lon="11.489431830">
        <ele>1697.8</ele>
        <time>2022-01-26T13:10:32</time>
      </trkpt>
      <trkpt lat="47.484063925" lon="11.489003515">
        <ele>1690.6</ele>
        <time>2022-01-26T13:10:42</time>
      </trkpt>
      <trkpt lat="47.484003659" lon="11.488872757">
        <ele>1685.8</ele>
        <time>2022-01-26T13:10:46</time>
      </trkpt>
      <trkpt lat="47.483978430" lon="11.488876613">
        <ele>1682.9</ele>
        <time>2022-01-26T13:10:47</time>
      </trkpt>
      <trkpt lat="47.483963845" lon="11.488816096">
        <ele>1680.0</ele>
        <time>2022-01-26T13:10:51</time>
      </trkpt>
      <trkpt lat="47.483987147" lon="11.488571512">
        <ele>1676.2</ele>
        <time>2022-01-26T13:10:58</time>
      </trkpt>
      <trkpt lat="47.483970635" lon="11.488117799">
        <ele>1666.6</ele>
        <time>2022-01-26T13:11:08</time>
      </trkpt>
      <trkpt lat="47.483978681" lon="11.487899786">
        <ele>1661.8</ele>
        <time>2022-01-26T13:11:12</time>
      </trkpt>
      <trkpt lat="47.483962253" lon="11.487568030">
        <ele>1655.0</ele>
        <time>2022-01-26T13:11:19</time>
      </trkpt>
      <trkpt lat="47.483945489" lon="11.487411875">
        <ele>1649.8</ele>
        <time>2022-01-26T13:11:23</time>
      </trkpt>
      <trkpt lat="47.483962001" lon="11.487369463">
        <ele>1648.8</ele>
        <time>2022-01-26T13:11:24</time>
      </trkpt>
      <trkpt lat="47.483941633" lon="11.487189001">
        <ele>1643.5</ele>
        <time>2022-01-26T13:11:29</time>
      </trkpt>
      <trkpt lat="47.483893521" lon="11.487191347">
        <ele>1635.8</ele>
        <time>2022-01-26T13:11:56</time>
      </trkpt>
      <trkpt lat="47.483829483" lon="11.487103254">
        <ele>1636.3</ele>
        <time>2022-01-26T13:12:01</time>
      </trkpt>
      <trkpt lat="47.483798303" lon="11.486784909">
        <ele>1633.4</ele>
        <time>2022-01-26T13:12:08</time>
      </trkpt>
      <trkpt lat="47.483811798" lon="11.486509899">
        <ele>1628.6</ele>
        <time>2022-01-26T13:12:13</time>
      </trkpt>
      <trkpt lat="47.483792016" lon="11.486373357">
        <ele>1625.2</ele>
        <time>2022-01-26T13:12:16</time>
      </trkpt>
      <trkpt lat="47.483852534" lon="11.486215359">
        <ele>1621.4</ele>
        <time>2022-01-26T13:12:20</time>
      </trkpt>
      <trkpt lat="47.483829148" lon="11.486192895">
        <ele>1617.6</ele>
        <time>2022-01-26T13:12:24</time>
      </trkpt>
      <trkpt lat="47.483824706" lon="11.485985359">
        <ele>1613.7</ele>
        <time>2022-01-26T13:12:29</time>
      </trkpt>
      <trkpt lat="47.483740887" lon="11.485902546">
        <ele>1610.8</ele>
        <time>2022-01-26T13:12:35</time>
      </trkpt>
      <trkpt lat="47.483752789" lon="11.485888632">
        <ele>1607.5</ele>
        <time>2022-01-26T13:12:42</time>
      </trkpt>
      <trkpt lat="47.483746670" lon="11.485848566">
        <ele>1607.0</ele>
        <time>2022-01-26T13:12:57</time>
      </trkpt>
      <trkpt lat="47.483724458" lon="11.485841442">
        <ele>1605.1</ele>
        <time>2022-01-26T13:13:10</time>
      </trkpt>
      <trkpt lat="47.483742228" lon="11.485816464">
        <ele>1604.1</ele>
        <time>2022-01-26T13:13:22</time>
      </trkpt>
      <trkpt lat="47.483738372" lon="11.485758377">
        <ele>1602.2</ele>
        <time>2022-01-26T13:13:42</time>
      </trkpt>
      <trkpt lat="47.483683135" lon="11.485657543">
        <ele>1601.2</ele>
        <time>2022-01-26T13:13:51</time>
      </trkpt>
      <trkpt lat="47.483687159" lon="11.485613622">
        <ele>1597.8</ele>
        <time>2022-01-26T13:13:59</time>
      </trkpt>
      <trkpt lat="47.483642902" lon="11.485579759">
        <ele>1596.4</ele>
        <time>2022-01-26T13:14:07</time>
      </trkpt>
      <trkpt lat="47.483669892" lon="11.485467525">
        <ele>1595.9</ele>
        <time>2022-01-26T13:14:12</time>
      </trkpt>
      <trkpt lat="47.483579535" lon="11.485285219">
        <ele>1592.6</ele>
        <time>2022-01-26T13:14:20</time>
      </trkpt>
      <trkpt lat="47.483571824" lon="11.485171812">
        <ele>1589.2</ele>
        <time>2022-01-26T13:14:24</time>
      </trkpt>
      <trkpt lat="47.483606190" lon="11.484829914">
        <ele>1583.9</ele>
        <time>2022-01-26T13:14:31</time>
      </trkpt>
      <trkpt lat="47.483547265" lon="11.484380309">
        <ele>1577.2</ele>
        <time>2022-01-26T13:14:38</time>
      </trkpt>
      <trkpt lat="47.483497392" lon="11.484162044">
        <ele>1572.8</ele>
        <time>2022-01-26T13:14:43</time>
      </trkpt>
      <trkpt lat="47.483510133" lon="11.484154668">
        <ele>1567.6</ele>
        <time>2022-01-26T13:15:03</time>
      </trkpt>
      <trkpt lat="47.483478785" lon="11.484081829">
        <ele>1566.6</ele>
        <time>2022-01-26T13:15:23</time>
      </trkpt>
      <trkpt lat="47.483473504" lon="11.483978145">
        <ele>1563.2</ele>
        <time>2022-01-26T13:16:03</time>
      </trkpt>
      <trkpt lat="47.483449280" lon="11.483927770">
        <ele>1561.8</ele>
        <time>2022-01-26T13:16:37</time>
      </trkpt>
      <trkpt lat="47.483468810" lon="11.483892733">
        <ele>1559.4</ele>
        <time>2022-01-26T13:16:43</time>
      </trkpt>
      <trkpt lat="47.483423716" lon="11.483836491">
        <ele>1556.5</ele>
        <time>2022-01-26T13:17:33</time>
      </trkpt>
      <trkpt lat="47.483445341" lon="11.483793827">
        <ele>1556.0</ele>
        <time>2022-01-26T13:17:41</time>
      </trkpt>
      <trkpt lat="47.483405191" lon="11.483648988">
        <ele>1555.5</ele>
        <time>2022-01-26T13:17:45</time>
      </trkpt>
      <trkpt lat="47.483345764" lon="11.483104415">
        <ele>1552.7</ele>
        <time>2022-01-26T13:17:56</time>
      </trkpt>
      <trkpt lat="47.483350541" lon="11.482982207">
        <ele>1549.8</ele>
        <time>2022-01-26T13:18:03</time>
      </trkpt>
      <trkpt lat="47.483292287" lon="11.482868632">
        <ele>1547.4</ele>
        <time>2022-01-26T13:18:09</time>
      </trkpt>
      <trkpt lat="47.483299747" lon="11.482760673">
        <ele>1545.9</ele>
        <time>2022-01-26T13:18:18</time>
      </trkpt>
      <trkpt lat="47.483196901" lon="11.482413998">
        <ele>1541.6</ele>
        <time>2022-01-26T13:18:32</time>
      </trkpt>
      <trkpt lat="47.483178461" lon="11.482239822">
        <ele>1537.8</ele>
        <time>2022-01-26T13:18:39</time>
      </trkpt>
      <trkpt lat="47.483156500" lon="11.482185926">
        <ele>1536.8</ele>
        <time>2022-01-26T13:18:45</time>
      </trkpt>
      <trkpt lat="47.483152477" lon="11.481912844">
        <ele>1531.0</ele>
        <time>2022-01-26T13:18:57</time>
      </trkpt>
      <trkpt lat="47.483071592" lon="11.481725005">
        <ele>1527.7</ele>
        <time>2022-01-26T13:19:12</time>
      </trkpt>
      <trkpt lat="47.483058097" lon="11.481496431">
        <ele>1524.3</ele>
        <time>2022-01-26T13:19:17</time>
      </trkpt>
      <trkpt lat="47.483001184" lon="11.481280010">
        <ele>1520.5</ele>
        <time>2022-01-26T13:19:22</time>
      </trkpt>
      <trkpt lat="47.482974948" lon="11.481288476">
        <ele>1517.6</ele>
        <time>2022-01-26T13:19:27</time>
      </trkpt>
      <trkpt lat="47.482929015" lon="11.481120335">
        <ele>1515.2</ele>
        <time>2022-01-26T13:19:39</time>
      </trkpt>
      <trkpt lat="47.482784931" lon="11.480865525">
        <ele>1508.0</ele>
        <time>2022-01-26T13:19:49</time>
      </trkpt>
      <trkpt lat="47.482788200" lon="11.480668969">
        <ele>1504.6</ele>
        <time>2022-01-26T13:19:55</time>
      </trkpt>
      <trkpt lat="47.482774956" lon="11.480558999">
        <ele>1501.7</ele>
        <time>2022-01-26T13:19:57</time>
      </trkpt>
      <trkpt lat="47.482677558" lon="11.480429918">
        <ele>1498.3</ele>
        <time>2022-01-26T13:20:01</time>
      </trkpt>
      <trkpt lat="47.482662639" lon="11.480220035">
        <ele>1490.2</ele>
        <time>2022-01-26T13:20:11</time>
      </trkpt>
      <trkpt lat="47.482632380" lon="11.480189860">
        <ele>1486.8</ele>
        <time>2022-01-26T13:20:20</time>
      </trkpt>
      <trkpt lat="47.482606899" lon="11.480029598">
        <ele>1485.4</ele>
        <time>2022-01-26T13:21:00</time>
      </trkpt>
      <trkpt lat="47.482447978" lon="11.479737572">
        <ele>1479.1</ele>
        <time>2022-01-26T13:21:14</time>
      </trkpt>
      <trkpt lat="47.482417384" lon="11.479463903">
        <ele>1475.3</ele>
        <time>2022-01-26T13:21:20</time>
      </trkpt>
      <trkpt lat="47.482443284" lon="11.479394669">
        <ele>1474.8</ele>
        <time>2022-01-26T13:21:21</time>
      </trkpt>
      <trkpt lat="47.482436495" lon="11.479231892">
        <ele>1470.0</ele>
        <time>2022-01-26T13:21:27</time>
      </trkpt>
      <trkpt lat="47.482320825" lon="11.479021003">
        <ele>1465.7</ele>
        <time>2022-01-26T13:21:41</time>
      </trkpt>
      <trkpt lat="47.482267851" lon="11.478984626">
        <ele>1464.7</ele>
        <time>2022-01-26T13:21:44</time>
      </trkpt>
      <trkpt lat="47.482172214" lon="11.479035253">
        <ele>1461.3</ele>
        <time>2022-01-26T13:21:48</time>
      </trkpt>
      <trkpt lat="47.482035002" lon="11.479161149">
        <ele>1458.5</ele>
        <time>2022-01-26T13:21:54</time>
      </trkpt>
      <trkpt lat="47.481970880" lon="11.479245722">
        <ele>1455.6</ele>
        <time>2022-01-26T13:21:57</time>
      </trkpt>
      <trkpt lat="47.481850265" lon="11.479135919">
        <ele>1446.9</ele>
        <time>2022-01-26T13:22:45</time>
      </trkpt>
      <trkpt lat="47.481843140" lon="11.479015304">
        <ele>1446.0</ele>
        <time>2022-01-26T13:22:54</time>
      </trkpt>
      <trkpt lat="47.481789663" lon="11.478915727">
        <ele>1444.5</ele>
        <time>2022-01-26T13:22:58</time>
      </trkpt>
      <trkpt lat="47.481732667" lon="11.478216508">
        <ele>1437.3</ele>
        <time>2022-01-26T13:23:11</time>
      </trkpt>
      <trkpt lat="47.481684219" lon="11.478003189">
        <ele>1435.4</ele>
        <time>2022-01-26T13:23:15</time>
      </trkpt>
      <trkpt lat="47.481711879" lon="11.477578562">
        <ele>1431.5</ele>
        <time>2022-01-26T13:23:23</time>
      </trkpt>
      <trkpt lat="47.481846660" lon="11.477438584">
        <ele>1428.7</ele>
        <time>2022-01-26T13:23:30</time>
      </trkpt>
      <trkpt lat="47.481872561" lon="11.477347976">
        <ele>1427.2</ele>
        <time>2022-01-26T13:23:33</time>
      </trkpt>
      <trkpt lat="47.481815815" lon="11.477118731">
        <ele>1423.4</ele>
        <time>2022-01-26T13:23:41</time>
      </trkpt>
      <trkpt lat="47.481664689" lon="11.476991242">
        <ele>1421.0</ele>
        <time>2022-01-26T13:24:01</time>
      </trkpt>
      <trkpt lat="47.481542649" lon="11.476960480">
        <ele>1420.0</ele>
        <time>2022-01-26T13:24:04</time>
      </trkpt>
      <trkpt lat="47.481242409" lon="11.476781862">
        <ele>1417.6</ele>
        <time>2022-01-26T13:24:11</time>
      </trkpt>
      <trkpt lat="47.481099078" lon="11.476872219">
        <ele>1414.2</ele>
        <time>2022-01-26T13:24:15</time>
      </trkpt>
      <trkpt lat="47.481061779" lon="11.476962995">
        <ele>1413.3</ele>
        <time>2022-01-26T13:24:17</time>
      </trkpt>
      <trkpt lat="47.481019869" lon="11.477347556">
        <ele>1409.4</ele>
        <time>2022-01-26T13:24:24</time>
      </trkpt>
      <trkpt lat="47.481037723" lon="11.477692220">
        <ele>1406.1</ele>
        <time>2022-01-26T13:24:30</time>
      </trkpt>
      <trkpt lat="47.481014254" lon="11.478188597">
        <ele>1401.7</ele>
        <time>2022-01-26T13:24:38</time>
      </trkpt>
      <trkpt lat="47.481022971" lon="11.478532003">
        <ele>1398.9</ele>
        <time>2022-01-26T13:24:44</time>
      </trkpt>
      <trkpt lat="47.481079968" lon="11.478966437">
        <ele>1395.5</ele>
        <time>2022-01-26T13:24:51</time>
      </trkpt>
      <trkpt lat="47.481134953" lon="11.479628188">
        <ele>1391.2</ele>
        <time>2022-01-26T13:25:01</time>
      </trkpt>
      <trkpt lat="47.481151968" lon="11.480161026">
        <ele>1386.8</ele>
        <time>2022-01-26T13:25:09</time>
      </trkpt>
      <trkpt lat="47.481137467" lon="11.480367305">
        <ele>1384.9</ele>
        <time>2022-01-26T13:25:12</time>
      </trkpt>
      <trkpt lat="47.481013080" lon="11.481018159">
        <ele>1380.1</ele>
        <time>2022-01-26T13:25:22</time>
      </trkpt>
      <trkpt lat="47.481018193" lon="11.481873281">
        <ele>1374.3</ele>
        <time>2022-01-26T13:25:34</time>
      </trkpt>
      <trkpt lat="47.480815183" lon="11.482071429">
        <ele>1371.0</ele>
        <time>2022-01-26T13:25:40</time>
      </trkpt>
      <trkpt lat="47.480443865" lon="11.481773788">
        <ele>1367.6</ele>
        <time>2022-01-26T13:25:50</time>
      </trkpt>
      <trkpt lat="47.480160976" lon="11.481493497">
        <ele>1364.2</ele>
        <time>2022-01-26T13:26:04</time>
      </trkpt>
      <trkpt lat="47.479712376" lon="11.481397189">
        <ele>1361.4</ele>
        <time>2022-01-26T13:26:20</time>
      </trkpt>
      <trkpt lat="47.479037298" lon="11.481098039">
        <ele>1356.6</ele>
        <time>2022-01-26T13:26:34</time>
      </trkpt>
      <trkpt lat="47.478545867" lon="11.480958061">
        <ele>1350.3</ele>
        <time>2022-01-26T13:26:44</time>
      </trkpt>
      <trkpt lat="47.478147224" lon="11.480777431">
        <ele>1346.0</ele>
        <time>2022-01-26T13:26:52</time>
      </trkpt>
      <trkpt lat="47.477903813" lon="11.480597975">
        <ele>1343.6</ele>
        <time>2022-01-26T13:26:57</time>
      </trkpt>
      <trkpt lat="47.477613715" lon="11.480215928">
        <ele>1339.2</ele>
        <time>2022-01-26T13:27:04</time>
      </trkpt>
      <trkpt lat="47.477431996" lon="11.479914430">
        <ele>1336.4</ele>
        <time>2022-01-26T13:27:09</time>
      </trkpt>
      <trkpt lat="47.477218676" lon="11.479892470">
        <ele>1332.0</ele>
        <time>2022-01-26T13:27:14</time>
      </trkpt>
      <trkpt lat="47.477044920" lon="11.480163792">
        <ele>1327.7</ele>
        <time>2022-01-26T13:27:19</time>
      </trkpt>
      <trkpt lat="47.476793965" lon="11.480744658">
        <ele>1318.6</ele>
        <time>2022-01-26T13:27:52</time>
      </trkpt>
      <trkpt lat="47.476530438" lon="11.481050011">
        <ele>1315.7</ele>
        <time>2022-01-26T13:27:59</time>
      </trkpt>
      <trkpt lat="47.476352993" lon="11.481481092">
        <ele>1310.9</ele>
        <time>2022-01-26T13:28:06</time>
      </trkpt>
      <trkpt lat="47.476471011" lon="11.482267398">
        <ele>1305.6</ele>
        <time>2022-01-26T13:28:16</time>
      </trkpt>
      <trkpt lat="47.476503281" lon="11.482616086">
        <ele>1302.2</ele>
        <time>2022-01-26T13:28:20</time>
      </trkpt>
      <trkpt lat="47.476499928" lon="11.482797638">
        <ele>1301.3</ele>
        <time>2022-01-26T13:28:22</time>
      </trkpt>
      <trkpt lat="47.476274036" lon="11.483098632">
        <ele>1297.4</ele>
        <time>2022-01-26T13:28:29</time>
      </trkpt>
      <trkpt lat="47.476039762" lon="11.483067786">
        <ele>1295.0</ele>
        <time>2022-01-26T13:28:34</time>
      </trkpt>
      <trkpt lat="47.475645896" lon="11.483248668">
        <ele>1291.7</ele>
        <time>2022-01-26T13:28:41</time>
      </trkpt>
      <trkpt lat="47.475262089" lon="11.483244728">
        <ele>1287.8</ele>
        <time>2022-01-26T13:28:48</time>
      </trkpt>
      <trkpt lat="47.474901583" lon="11.483197873">
        <ele>1283.0</ele>
        <time>2022-01-26T13:28:55</time>
      </trkpt>
      <trkpt lat="47.474489696" lon="11.483307509">
        <ele>1277.7</ele>
        <time>2022-01-26T13:29:04</time>
      </trkpt>
      <trkpt lat="47.474385593" lon="11.483244896">
        <ele>1275.8</ele>
        <time>2022-01-26T13:29:07</time>
      </trkpt>
      <trkpt lat="47.474466143" lon="11.483061500">
        <ele>1274.8</ele>
        <time>2022-01-26T13:29:10</time>
      </trkpt>
      <trkpt lat="47.474737298" lon="11.482755477">
        <ele>1271.0</ele>
        <time>2022-01-26T13:29:17</time>
      </trkpt>
      <trkpt lat="47.475025300" lon="11.482574008">
        <ele>1265.7</ele>
        <time>2022-01-26T13:29:23</time>
      </trkpt>
      <trkpt lat="47.475224203" lon="11.482286844">
        <ele>1262.8</ele>
        <time>2022-01-26T13:29:28</time>
      </trkpt>
      <trkpt lat="47.475388823" lon="11.481931452">
        <ele>1258.5</ele>
        <time>2022-01-26T13:29:33</time>
      </trkpt>
      <trkpt lat="47.475577332" lon="11.481769178">
        <ele>1256.1</ele>
        <time>2022-01-26T13:29:37</time>
      </trkpt>
      <trkpt lat="47.475612704" lon="11.481443541">
        <ele>1251.8</ele>
        <time>2022-01-26T13:29:42</time>
      </trkpt>
      <trkpt lat="47.475252114" lon="11.480745329">
        <ele>1243.6</ele>
        <time>2022-01-26T13:29:54</time>
      </trkpt>
      <trkpt lat="47.475198889" lon="11.480334532">
        <ele>1240.2</ele>
        <time>2022-01-26T13:30:01</time>
      </trkpt>
      <trkpt lat="47.475249432" lon="11.480213497">
        <ele>1239.3</ele>
        <time>2022-01-26T13:30:03</time>
      </trkpt>
      <trkpt lat="47.475815965" lon="11.479337337">
        <ele>1231.1</ele>
        <time>2022-01-26T13:30:18</time>
      </trkpt>
      <trkpt lat="47.475900706" lon="11.479101302">
        <ele>1228.2</ele>
        <time>2022-01-26T13:30:21</time>
      </trkpt>
      <trkpt lat="47.475964408" lon="11.478050044">
        <ele>1219.1</ele>
        <time>2022-01-26T13:30:31</time>
      </trkpt>
      <trkpt lat="47.475804314" lon="11.477863966">
        <ele>1214.8</ele>
        <time>2022-01-26T13:30:36</time>
      </trkpt>
      <trkpt lat="47.475671042" lon="11.478555221">
        <ele>1208.0</ele>
        <time>2022-01-26T13:30:45</time>
      </trkpt>
      <trkpt lat="47.475444647" lon="11.479075067">
        <ele>1201.3</ele>
        <time>2022-01-26T13:30:57</time>
      </trkpt>
      <trkpt lat="47.475239038" lon="11.479295595">
        <ele>1198.4</ele>
        <time>2022-01-26T13:31:06</time>
      </trkpt>
      <trkpt lat="47.475159913" lon="11.479425011">
        <ele>1197.0</ele>
        <time>2022-01-26T13:31:09</time>
      </trkpt>
      <trkpt lat="47.474805610" lon="11.479831785">
        <ele>1192.7</ele>
        <time>2022-01-26T13:31:17</time>
      </trkpt>
      <trkpt lat="47.474517189" lon="11.479750648">
        <ele>1188.8</ele>
        <time>2022-01-26T13:31:24</time>
      </trkpt>
      <trkpt lat="47.474401519" lon="11.479515871">
        <ele>1186.9</ele>
        <time>2022-01-26T13:31:31</time>
      </trkpt>
      <trkpt lat="47.474317867" lon="11.479530204">
        <ele>1185.9</ele>
        <time>2022-01-26T13:31:35</time>
      </trkpt>
      <trkpt lat="47.474099770" lon="11.479752157">
        <ele>1182.6</ele>
        <time>2022-01-26T13:32:23</time>
      </trkpt>
      <trkpt lat="47.473440198" lon="11.479807310">
        <ele>1177.3</ele>
        <time>2022-01-26T13:32:37</time>
      </trkpt>
      <trkpt lat="47.473264346" lon="11.479876041">
        <ele>1174.4</ele>
        <time>2022-01-26T13:32:41</time>
      </trkpt>
      <trkpt lat="47.472913312" lon="11.479961034">
        <ele>1169.6</ele>
        <time>2022-01-26T13:32:48</time>
      </trkpt>
      <trkpt lat="47.472675852" lon="11.479666159">
        <ele>1166.7</ele>
        <time>2022-01-26T13:32:53</time>
      </trkpt>
      <trkpt lat="47.472575773" lon="11.479600361">
        <ele>1164.3</ele>
        <time>2022-01-26T13:32:55</time>
      </trkpt>
      <trkpt lat="47.471715622" lon="11.479296181">
        <ele>1152.8</ele>
        <time>2022-01-26T13:33:10</time>
      </trkpt>
      <trkpt lat="47.471571369" lon="11.479406236">
        <ele>1149.4</ele>
        <time>2022-01-26T13:33:13</time>
      </trkpt>
      <trkpt lat="47.471461315" lon="11.479626177">
        <ele>1146.0</ele>
        <time>2022-01-26T13:33:17</time>
      </trkpt>
      <trkpt lat="47.471363414" lon="11.479549566">
        <ele>1142.2</ele>
        <time>2022-01-26T13:33:20</time>
      </trkpt>
      <trkpt lat="47.471422758" lon="11.479169447">
        <ele>1138.8</ele>
        <time>2022-01-26T13:33:25</time>
      </trkpt>
      <trkpt lat="47.471587714" lon="11.478545582">
        <ele>1131.6</ele>
        <time>2022-01-26T13:33:33</time>
      </trkpt>
      <trkpt lat="47.471694834" lon="11.478361431">
        <ele>1128.7</ele>
        <time>2022-01-26T13:33:36</time>
      </trkpt>
      <trkpt lat="47.471996834" lon="11.478322204">
        <ele>1123.4</ele>
        <time>2022-01-26T13:33:42</time>
      </trkpt>
      <trkpt lat="47.472222224" lon="11.478319941">
        <ele>1120.5</ele>
        <time>2022-01-26T13:33:46</time>
      </trkpt>
      <trkpt lat="47.472430682" lon="11.478164541">
        <ele>1117.2</ele>
        <time>2022-01-26T13:33:50</time>
      </trkpt>
      <trkpt lat="47.472861176" lon="11.477494910">
        <ele>1106.6</ele>
        <time>2022-01-26T13:34:02</time>
      </trkpt>
      <trkpt lat="47.473201146" lon="11.477133902">
        <ele>1098.9</ele>
        <time>2022-01-26T13:34:11</time>
      </trkpt>
      <trkpt lat="47.473434247" lon="11.476856545">
        <ele>1094.6</ele>
        <time>2022-01-26T13:34:17</time>
      </trkpt>
      <trkpt lat="47.473516222" lon="11.476707263">
        <ele>1092.7</ele>
        <time>2022-01-26T13:34:20</time>
      </trkpt>
      <trkpt lat="47.473436678" lon="11.476242822">
        <ele>1088.3</ele>
        <time>2022-01-26T13:34:27</time>
      </trkpt>
      <trkpt lat="47.473291336" lon="11.475841999">
        <ele>1084.5</ele>
        <time>2022-01-26T13:34:33</time>
      </trkpt>
      <trkpt lat="47.473273734" lon="11.475327350">
        <ele>1079.2</ele>
        <time>2022-01-26T13:34:40</time>
      </trkpt>
      <trkpt lat="47.473302148" lon="11.474991823">
        <ele>1076.3</ele>
        <time>2022-01-26T13:34:45</time>
      </trkpt>
      <trkpt lat="47.473401055" lon="11.474706083">
        <ele>1073.0</ele>
        <time>2022-01-26T13:34:49</time>
      </trkpt>
      <trkpt lat="47.473609764" lon="11.474520424">
        <ele>1069.6</ele>
        <time>2022-01-26T13:34:55</time>
      </trkpt>
      <trkpt lat="47.473652931" lon="11.474222448">
        <ele>1065.8</ele>
        <time>2022-01-26T13:35:00</time>
      </trkpt>
      <trkpt lat="47.473374736" lon="11.474216497">
        <ele>1061.4</ele>
        <time>2022-01-26T13:35:07</time>
      </trkpt>
      <trkpt lat="47.473171726" lon="11.474303166">
        <ele>1058.1</ele>
        <time>2022-01-26T13:35:11</time>
      </trkpt>
      <trkpt lat="47.472840138" lon="11.474405089">
        <ele>1052.8</ele>
        <time>2022-01-26T13:35:19</time>
      </trkpt>
      <trkpt lat="47.472413834" lon="11.474489328">
        <ele>1046.0</ele>
        <time>2022-01-26T13:35:28</time>
      </trkpt>
      <trkpt lat="47.472216776" lon="11.474699965">
        <ele>1043.7</ele>
        <time>2022-01-26T13:35:33</time>
      </trkpt>
      <trkpt lat="47.472128095" lon="11.474920073">
        <ele>1041.7</ele>
        <time>2022-01-26T13:35:36</time>
      </trkpt>
      <trkpt lat="47.471799105" lon="11.475085784">
        <ele>1036.9</ele>
        <time>2022-01-26T13:35:43</time>
      </trkpt>
      <trkpt lat="47.471769182" lon="11.475034822">
        <ele>1036.4</ele>
        <time>2022-01-26T13:35:44</time>
      </trkpt>
      <trkpt lat="47.471886780" lon="11.474602064">
        <ele>1031.6</ele>
        <time>2022-01-26T13:35:51</time>
      </trkpt>
      <trkpt lat="47.472011419" lon="11.474005273">
        <ele>1025.9</ele>
        <time>2022-01-26T13:36:00</time>
      </trkpt>
      <trkpt lat="47.472148463" lon="11.473588524">
        <ele>1023.0</ele>
        <time>2022-01-26T13:36:06</time>
      </trkpt>
      <trkpt lat="47.472295901" lon="11.473324997">
        <ele>1021.5</ele>
        <time>2022-01-26T13:36:10</time>
      </trkpt>
      <trkpt lat="47.472404530" lon="11.473050490">
        <ele>1019.6</ele>
        <time>2022-01-26T13:36:14</time>
      </trkpt>
      <trkpt lat="47.472472340" lon="11.472467193">
        <ele>1014.8</ele>
        <time>2022-01-26T13:36:21</time>
      </trkpt>
      <trkpt lat="47.472463120" lon="11.472132923">
        <ele>1013.4</ele>
        <time>2022-01-26T13:36:25</time>
      </trkpt>
      <trkpt lat="47.472258182" lon="11.471752636">
        <ele>1008.1</ele>
        <time>2022-01-26T13:36:31</time>
      </trkpt>
      <trkpt lat="47.472078726" lon="11.471547028">
        <ele>1005.7</ele>
        <time>2022-01-26T13:36:35</time>
      </trkpt>
      <trkpt lat="47.472051149" lon="11.471329853">
        <ele>1004.2</ele>
        <time>2022-01-26T13:36:38</time>
      </trkpt>
      <trkpt lat="47.472179811" lon="11.471117875">
        <ele>1000.9</ele>
        <time>2022-01-26T13:36:42</time>
      </trkpt>
      <trkpt lat="47.472455325" lon="11.471043108">
        <ele>998.0</ele>
        <time>2022-01-26T13:36:48</time>
      </trkpt>
      <trkpt lat="47.472694293" lon="11.471231282">
        <ele>994.6</ele>
        <time>2022-01-26T13:36:53</time>
      </trkpt>
      <trkpt lat="47.473046835" lon="11.471236982">
        <ele>990.3</ele>
        <time>2022-01-26T13:37:01</time>
      </trkpt>
      <trkpt lat="47.473333664" lon="11.470701294">
        <ele>986.5</ele>
        <time>2022-01-26T13:37:10</time>
      </trkpt>
      <trkpt lat="47.473394098" lon="11.470522424">
        <ele>985.0</ele>
        <time>2022-01-26T13:37:13</time>
      </trkpt>
      <trkpt lat="47.473396696" lon="11.470104670">
        <ele>981.2</ele>
        <time>2022-01-26T13:37:19</time>
      </trkpt>
      <trkpt lat="47.473249761" lon="11.469467813">
        <ele>978.8</ele>
        <time>2022-01-26T13:37:27</time>
      </trkpt>
      <trkpt lat="47.473214977" lon="11.469187355">
        <ele>976.8</ele>
        <time>2022-01-26T13:37:31</time>
      </trkpt>
      <trkpt lat="47.473328803" lon="11.468847133">
        <ele>973.5</ele>
        <time>2022-01-26T13:37:38</time>
      </trkpt>
      <trkpt lat="47.473633317" lon="11.468969928">
        <ele>970.6</ele>
        <time>2022-01-26T13:37:43</time>
      </trkpt>
      <trkpt lat="47.473959038" lon="11.468947884">
        <ele>965.8</ele>
        <time>2022-01-26T13:37:50</time>
      </trkpt>
      <trkpt lat="47.474048054" lon="11.468826430">
        <ele>962.9</ele>
        <time>2022-01-26T13:37:53</time>
      </trkpt>
      <trkpt lat="47.474098345" lon="11.468511438">
        <ele>959.5</ele>
        <time>2022-01-26T13:37:58</time>
      </trkpt>
      <trkpt lat="47.474081917" lon="11.468318906">
        <ele>958.1</ele>
        <time>2022-01-26T13:38:01</time>
      </trkpt>
      <trkpt lat="47.474217704" lon="11.467976253">
        <ele>954.2</ele>
        <time>2022-01-26T13:38:07</time>
      </trkpt>
      <trkpt lat="47.474347539" lon="11.467766454">
        <ele>952.3</ele>
        <time>2022-01-26T13:38:11</time>
      </trkpt>
      <trkpt lat="47.474585753" lon="11.467164299">
        <ele>948.5</ele>
        <time>2022-01-26T13:38:19</time>
      </trkpt>
      <trkpt lat="47.474634703" lon="11.467024237">
        <ele>947.0</ele>
        <time>2022-01-26T13:38:21</time>
      </trkpt>
      <trkpt lat="47.474699411" lon="11.466680160">
        <ele>943.7</ele>
        <time>2022-01-26T13:38:26</time>
      </trkpt>
      <trkpt lat="47.474759510" lon="11.466550157">
        <ele>943.2</ele>
        <time>2022-01-26T13:38:28</time>
      </trkpt>
      <trkpt lat="47.475375747" lon="11.465976918">
        <ele>935.5</ele>
        <time>2022-01-26T13:38:41</time>
      </trkpt>
      <trkpt lat="47.475853935" lon="11.465735855">
        <ele>932.1</ele>
        <time>2022-01-26T13:38:55</time>
      </trkpt>
      <trkpt lat="47.475986201" lon="11.465630997">
        <ele>931.6</ele>
        <time>2022-01-26T13:39:01</time>
      </trkpt>
      <trkpt lat="47.476199772" lon="11.465351628">
        <ele>931.6</ele>
        <time>2022-01-26T13:39:16</time>
      </trkpt>
      <trkpt lat="47.476331033" lon="11.465106877">
        <ele>931.2</ele>
        <time>2022-01-26T13:39:32</time>
      </trkpt>
      <trkpt lat="47.476359448" lon="11.464940077">
        <ele>932.6</ele>
        <time>2022-01-26T13:39:50</time>
      </trkpt>
      <trkpt lat="47.476362549" lon="11.464791298">
        <ele>933.1</ele>
        <time>2022-01-26T13:40:11</time>
      </trkpt>
      <trkpt lat="47.476146882" lon="11.464885008">
        <ele>933.6</ele>
        <time>2022-01-26T13:40:45</time>
      </trkpt>
      <trkpt lat="47.475800710" lon="11.465214081">
        <ele>934.5</ele>
        <time>2022-01-26T13:41:15</time>
      </trkpt>
      <trkpt lat="47.475456214" lon="11.465376606">
        <ele>934.5</ele>
        <time>2022-01-26T13:41:43</time>
      </trkpt>
      <trkpt lat="47.475202577" lon="11.465353305">
        <ele>935.5</ele>
        <time>2022-01-26T13:42:14</time>
      </trkpt>
      <trkpt lat="47.474948186" lon="11.465289518">
        <ele>936.0</ele>
        <time>2022-01-26T13:42:40</time>
      </trkpt>
      <trkpt lat="47.474754900" lon="11.465332098">
        <ele>935.5</ele>
        <time>2022-01-26T13:43:10</time>
      </trkpt>
      <trkpt lat="47.474571755" lon="11.465356993">
        <ele>936.0</ele>
        <time>2022-01-26T13:43:20</time>
      </trkpt>
      <trkpt lat="47.474499335" lon="11.465350036">
        <ele>936.0</ele>
        <time>2022-01-26T13:43:49</time>
      </trkpt>
      <trkpt lat="47.474496905" lon="11.465315251">
        <ele>936.0</ele>
        <time>2022-01-26T13:44:02</time>
      </trkpt>
      <trkpt lat="47.474485170" lon="11.465335200">
        <ele>936.0</ele>
        <time>2022-01-26T13:44:28</time>
      </trkpt>
      <trkpt lat="47.474498078" lon="11.465278370">
        <ele>937.9</ele>
        <time>2022-01-26T13:44:53</time>
      </trkpt>
    </trkseg>
  </trk>
</gpx>
